<?xml version="1.0" encoding="UTF-8" standalone="no" ?>
<gpx xmlns="http://www.topografix.com/GPX/1/1" xmlns:xsi="http://www.w3.org/2001/XMLSchema-instance" xsi:schemaLocation="http://www.topografix.com/GPX/1/1 http://www.topografix.com/GPX/1/1/gpx.xsd" version="1.1" creator="VisuGPX - https://www.visugpx.com">
  <metadata>
    <name>St valery sur Somme_11 km</name>
    <desc><![CDATA[Walkmeter Marche 21 juil. 2013 09:34:56]]></desc>
  </metadata>
  <trk>
    <name><![CDATA[St Valery / Somme]]></name>
    <trkseg>
      <trkpt lat="50.18374" lon="1.61326">
        <ele>27</ele>
        <time>2013-07-21T07:34:56Z</time>
      </trkpt>
      <trkpt lat="50.18374" lon="1.61324">
        <ele>26.9</ele>
        <time>2013-07-21T07:34:57Z</time>
      </trkpt>
      <trkpt lat="50.18373" lon="1.61301">
        <ele>25.1</ele>
        <time>2013-07-21T07:35:08Z</time>
      </trkpt>
      <trkpt lat="50.18373" lon="1.61279">
        <ele>23.4</ele>
        <time>2013-07-21T07:35:18Z</time>
      </trkpt>
      <trkpt lat="50.18374" lon="1.61258">
        <ele>21.4</ele>
        <time>2013-07-21T07:35:29Z</time>
      </trkpt>
      <trkpt lat="50.18373" lon="1.61235">
        <ele>19.3</ele>
        <time>2013-07-21T07:35:39Z</time>
      </trkpt>
      <trkpt lat="50.18373" lon="1.61213">
        <ele>17</ele>
        <time>2013-07-21T07:35:50Z</time>
      </trkpt>
      <trkpt lat="50.18365" lon="1.61195">
        <ele>17</ele>
        <time>2013-07-21T07:35:59Z</time>
      </trkpt>
      <trkpt lat="50.18362" lon="1.61174">
        <ele>17.7</ele>
        <time>2013-07-21T07:36:08Z</time>
      </trkpt>
      <trkpt lat="50.18361" lon="1.61152">
        <ele>20.5</ele>
        <time>2013-07-21T07:36:21Z</time>
      </trkpt>
      <trkpt lat="50.18355" lon="1.6113">
        <ele>20.8</ele>
        <time>2013-07-21T07:36:29Z</time>
      </trkpt>
      <trkpt lat="50.18356" lon="1.61108">
        <ele>18.2</ele>
        <time>2013-07-21T07:36:40Z</time>
      </trkpt>
      <trkpt lat="50.18349" lon="1.6109">
        <ele>18.9</ele>
        <time>2013-07-21T07:36:49Z</time>
      </trkpt>
      <trkpt lat="50.18346" lon="1.61069">
        <ele>19.9</ele>
        <time>2013-07-21T07:36:59Z</time>
      </trkpt>
      <trkpt lat="50.18341" lon="1.61048">
        <ele>21.3</ele>
        <time>2013-07-21T07:37:12Z</time>
      </trkpt>
      <trkpt lat="50.18337" lon="1.61026">
        <ele>22.5</ele>
        <time>2013-07-21T07:37:24Z</time>
      </trkpt>
      <trkpt lat="50.18335" lon="1.61005">
        <ele>23.6</ele>
        <time>2013-07-21T07:37:34Z</time>
      </trkpt>
      <trkpt lat="50.18332" lon="1.60984">
        <ele>24.5</ele>
        <time>2013-07-21T07:37:43Z</time>
      </trkpt>
      <trkpt lat="50.18326" lon="1.60963">
        <ele>25.4</ele>
        <time>2013-07-21T07:37:52Z</time>
      </trkpt>
      <trkpt lat="50.18323" lon="1.6094">
        <ele>26.6</ele>
        <time>2013-07-21T07:38:04Z</time>
      </trkpt>
      <trkpt lat="50.1832" lon="1.6092">
        <ele>26.2</ele>
        <time>2013-07-21T07:38:14Z</time>
      </trkpt>
      <trkpt lat="50.18315" lon="1.60898">
        <ele>24.9</ele>
        <time>2013-07-21T07:38:22Z</time>
      </trkpt>
      <trkpt lat="50.1831" lon="1.60877">
        <ele>22.9</ele>
        <time>2013-07-21T07:38:35Z</time>
      </trkpt>
      <trkpt lat="50.18308" lon="1.60855">
        <ele>21.9</ele>
        <time>2013-07-21T07:38:46Z</time>
      </trkpt>
      <trkpt lat="50.18307" lon="1.60834">
        <ele>21.6</ele>
        <time>2013-07-21T07:38:56Z</time>
      </trkpt>
      <trkpt lat="50.18304" lon="1.60812">
        <ele>21.4</ele>
        <time>2013-07-21T07:39:05Z</time>
      </trkpt>
      <trkpt lat="50.18299" lon="1.60791">
        <ele>21.1</ele>
        <time>2013-07-21T07:39:17Z</time>
      </trkpt>
      <trkpt lat="50.18297" lon="1.60769">
        <ele>20</ele>
        <time>2013-07-21T07:39:26Z</time>
      </trkpt>
      <trkpt lat="50.18295" lon="1.60747">
        <ele>21.2</ele>
        <time>2013-07-21T07:39:37Z</time>
      </trkpt>
      <trkpt lat="50.18293" lon="1.60722">
        <ele>22.8</ele>
        <time>2013-07-21T07:39:52Z</time>
      </trkpt>
      <trkpt lat="50.1829" lon="1.607">
        <ele>23.7</ele>
        <time>2013-07-21T07:40:00Z</time>
      </trkpt>
      <trkpt lat="50.18287" lon="1.60679">
        <ele>22.9</ele>
        <time>2013-07-21T07:40:09Z</time>
      </trkpt>
      <trkpt lat="50.18283" lon="1.60658">
        <ele>19.7</ele>
        <time>2013-07-21T07:40:22Z</time>
      </trkpt>
      <trkpt lat="50.1828" lon="1.60636">
        <ele>16.5</ele>
        <time>2013-07-21T07:40:34Z</time>
      </trkpt>
      <trkpt lat="50.1828" lon="1.60615">
        <ele>17.6</ele>
        <time>2013-07-21T07:40:44Z</time>
      </trkpt>
      <trkpt lat="50.18275" lon="1.60595">
        <ele>18.9</ele>
        <time>2013-07-21T07:40:55Z</time>
      </trkpt>
      <trkpt lat="50.18273" lon="1.60571">
        <ele>16.3</ele>
        <time>2013-07-21T07:41:07Z</time>
      </trkpt>
      <trkpt lat="50.18272" lon="1.60549">
        <ele>16</ele>
        <time>2013-07-21T07:41:18Z</time>
      </trkpt>
      <trkpt lat="50.1827" lon="1.60528">
        <ele>17.7</ele>
        <time>2013-07-21T07:41:27Z</time>
      </trkpt>
      <trkpt lat="50.18272" lon="1.60507">
        <ele>18.4</ele>
        <time>2013-07-21T07:41:42Z</time>
      </trkpt>
      <trkpt lat="50.18276" lon="1.60486">
        <ele>17.8</ele>
        <time>2013-07-21T07:41:50Z</time>
      </trkpt>
      <trkpt lat="50.1828" lon="1.60462">
        <ele>17.2</ele>
        <time>2013-07-21T07:41:58Z</time>
      </trkpt>
      <trkpt lat="50.18279" lon="1.6044">
        <ele>16.2</ele>
        <time>2013-07-21T07:42:10Z</time>
      </trkpt>
      <trkpt lat="50.18276" lon="1.60419">
        <ele>17.2</ele>
        <time>2013-07-21T07:42:22Z</time>
      </trkpt>
      <trkpt lat="50.18274" lon="1.60412">
        <ele>17.9</ele>
        <time>2013-07-21T07:42:27Z</time>
      </trkpt>
      <trkpt lat="50.18285" lon="1.60397">
        <ele>18.6</ele>
        <time>2013-07-21T07:42:39Z</time>
      </trkpt>
      <trkpt lat="50.18289" lon="1.60376">
        <ele>17.5</ele>
        <time>2013-07-21T07:42:49Z</time>
      </trkpt>
      <trkpt lat="50.18293" lon="1.60356">
        <ele>16.4</ele>
        <time>2013-07-21T07:42:59Z</time>
      </trkpt>
      <trkpt lat="50.18298" lon="1.60336">
        <ele>16.3</ele>
        <time>2013-07-21T07:43:10Z</time>
      </trkpt>
      <trkpt lat="50.183" lon="1.60313">
        <ele>16.8</ele>
        <time>2013-07-21T07:43:20Z</time>
      </trkpt>
      <trkpt lat="50.183" lon="1.6029">
        <ele>17.3</ele>
        <time>2013-07-21T07:43:32Z</time>
      </trkpt>
      <trkpt lat="50.18303" lon="1.60268">
        <ele>17.8</ele>
        <time>2013-07-21T07:43:43Z</time>
      </trkpt>
      <trkpt lat="50.18307" lon="1.60246">
        <ele>18.4</ele>
        <time>2013-07-21T07:43:55Z</time>
      </trkpt>
      <trkpt lat="50.18312" lon="1.60225">
        <ele>18.7</ele>
        <time>2013-07-21T07:44:03Z</time>
      </trkpt>
      <trkpt lat="50.18313" lon="1.60203">
        <ele>19.6</ele>
        <time>2013-07-21T07:44:17Z</time>
      </trkpt>
      <trkpt lat="50.18312" lon="1.60181">
        <ele>20.1</ele>
        <time>2013-07-21T07:44:25Z</time>
      </trkpt>
      <trkpt lat="50.18311" lon="1.60159">
        <ele>20.8</ele>
        <time>2013-07-21T07:44:35Z</time>
      </trkpt>
      <trkpt lat="50.18306" lon="1.60139">
        <ele>21.6</ele>
        <time>2013-07-21T07:44:46Z</time>
      </trkpt>
      <trkpt lat="50.18306" lon="1.60117">
        <ele>18.6</ele>
        <time>2013-07-21T07:44:59Z</time>
      </trkpt>
      <trkpt lat="50.18304" lon="1.60096">
        <ele>12.8</ele>
        <time>2013-07-21T07:45:11Z</time>
      </trkpt>
      <trkpt lat="50.18302" lon="1.60089">
        <ele>11.3</ele>
        <time>2013-07-21T07:45:14Z</time>
      </trkpt>
      <trkpt lat="50.18308" lon="1.60092">
        <ele>10.8</ele>
        <time>2013-07-21T07:45:15Z</time>
      </trkpt>
      <trkpt lat="50.18323" lon="1.60125">
        <ele>9.9</ele>
        <time>2013-07-21T07:45:17Z</time>
      </trkpt>
      <trkpt lat="50.18321" lon="1.60126">
        <ele>7.9</ele>
        <time>2013-07-21T07:45:21Z</time>
      </trkpt>
      <trkpt lat="50.1832" lon="1.60102">
        <ele>5.4</ele>
        <time>2013-07-21T07:45:27Z</time>
      </trkpt>
      <trkpt lat="50.18312" lon="1.60084">
        <ele>4.2</ele>
        <time>2013-07-21T07:45:31Z</time>
      </trkpt>
      <trkpt lat="50.18303" lon="1.60067">
        <ele>3</ele>
        <time>2013-07-21T07:45:35Z</time>
      </trkpt>
      <trkpt lat="50.18296" lon="1.60047">
        <ele>1.2</ele>
        <time>2013-07-21T07:45:42Z</time>
      </trkpt>
      <trkpt lat="50.18295" lon="1.60024">
        <ele>0.6</ele>
        <time>2013-07-21T07:45:49Z</time>
      </trkpt>
      <trkpt lat="50.18295" lon="1.60002">
        <ele>3.1</ele>
        <time>2013-07-21T07:45:57Z</time>
      </trkpt>
      <trkpt lat="50.18296" lon="1.59981">
        <ele>6.5</ele>
        <time>2013-07-21T07:46:09Z</time>
      </trkpt>
      <trkpt lat="50.18292" lon="1.5996">
        <ele>9.4</ele>
        <time>2013-07-21T07:46:21Z</time>
      </trkpt>
      <trkpt lat="50.18294" lon="1.59939">
        <ele>11</ele>
        <time>2013-07-21T07:46:31Z</time>
      </trkpt>
      <trkpt lat="50.18294" lon="1.59917">
        <ele>9.7</ele>
        <time>2013-07-21T07:46:42Z</time>
      </trkpt>
      <trkpt lat="50.18297" lon="1.59896">
        <ele>8</ele>
        <time>2013-07-21T07:46:54Z</time>
      </trkpt>
      <trkpt lat="50.1829" lon="1.59878">
        <ele>4.7</ele>
        <time>2013-07-21T07:47:06Z</time>
      </trkpt>
      <trkpt lat="50.1829" lon="1.59857">
        <ele>3</ele>
        <time>2013-07-21T07:47:16Z</time>
      </trkpt>
      <trkpt lat="50.18293" lon="1.59836">
        <ele>4.8</ele>
        <time>2013-07-21T07:47:28Z</time>
      </trkpt>
      <trkpt lat="50.18294" lon="1.59815">
        <ele>8.3</ele>
        <time>2013-07-21T07:47:39Z</time>
      </trkpt>
      <trkpt lat="50.18297" lon="1.59794">
        <ele>9</ele>
        <time>2013-07-21T07:47:50Z</time>
      </trkpt>
      <trkpt lat="50.18298" lon="1.59771">
        <ele>9.7</ele>
        <time>2013-07-21T07:48:00Z</time>
      </trkpt>
      <trkpt lat="50.183" lon="1.59749">
        <ele>10.4</ele>
        <time>2013-07-21T07:48:10Z</time>
      </trkpt>
      <trkpt lat="50.18301" lon="1.59728">
        <ele>11.1</ele>
        <time>2013-07-21T07:48:21Z</time>
      </trkpt>
      <trkpt lat="50.18305" lon="1.59705">
        <ele>11.9</ele>
        <time>2013-07-21T07:48:32Z</time>
      </trkpt>
      <trkpt lat="50.18307" lon="1.59684">
        <ele>12.6</ele>
        <time>2013-07-21T07:48:42Z</time>
      </trkpt>
      <trkpt lat="50.18311" lon="1.59663">
        <ele>13.2</ele>
        <time>2013-07-21T07:48:51Z</time>
      </trkpt>
      <trkpt lat="50.18314" lon="1.5964">
        <ele>14</ele>
        <time>2013-07-21T07:49:01Z</time>
      </trkpt>
      <trkpt lat="50.18316" lon="1.59618">
        <ele>14.7</ele>
        <time>2013-07-21T07:49:11Z</time>
      </trkpt>
      <trkpt lat="50.1832" lon="1.59595">
        <ele>12.8</ele>
        <time>2013-07-21T07:49:20Z</time>
      </trkpt>
      <trkpt lat="50.18321" lon="1.59573">
        <ele>10.3</ele>
        <time>2013-07-21T07:49:32Z</time>
      </trkpt>
      <trkpt lat="50.18324" lon="1.5955">
        <ele>10.8</ele>
        <time>2013-07-21T07:49:43Z</time>
      </trkpt>
      <trkpt lat="50.1833" lon="1.59529">
        <ele>11.4</ele>
        <time>2013-07-21T07:49:55Z</time>
      </trkpt>
      <trkpt lat="50.18333" lon="1.59507">
        <ele>12</ele>
        <time>2013-07-21T07:50:07Z</time>
      </trkpt>
      <trkpt lat="50.18335" lon="1.59486">
        <ele>12.5</ele>
        <time>2013-07-21T07:50:17Z</time>
      </trkpt>
      <trkpt lat="50.18338" lon="1.59464">
        <ele>13</ele>
        <time>2013-07-21T07:50:27Z</time>
      </trkpt>
      <trkpt lat="50.18341" lon="1.59442">
        <ele>12.4</ele>
        <time>2013-07-21T07:50:38Z</time>
      </trkpt>
      <trkpt lat="50.18345" lon="1.59417">
        <ele>11.9</ele>
        <time>2013-07-21T07:50:47Z</time>
      </trkpt>
      <trkpt lat="50.18346" lon="1.59395">
        <ele>11.3</ele>
        <time>2013-07-21T07:50:57Z</time>
      </trkpt>
      <trkpt lat="50.18348" lon="1.59373">
        <ele>10.7</ele>
        <time>2013-07-21T07:51:08Z</time>
      </trkpt>
      <trkpt lat="50.18351" lon="1.59352">
        <ele>10.1</ele>
        <time>2013-07-21T07:51:18Z</time>
      </trkpt>
      <trkpt lat="50.18354" lon="1.5933">
        <ele>9.6</ele>
        <time>2013-07-21T07:51:28Z</time>
      </trkpt>
      <trkpt lat="50.1836" lon="1.59308">
        <ele>9</ele>
        <time>2013-07-21T07:51:39Z</time>
      </trkpt>
      <trkpt lat="50.18363" lon="1.59287">
        <ele>10.2</ele>
        <time>2013-07-21T07:51:51Z</time>
      </trkpt>
      <trkpt lat="50.18365" lon="1.59263">
        <ele>11.2</ele>
        <time>2013-07-21T07:52:00Z</time>
      </trkpt>
      <trkpt lat="50.18365" lon="1.59254">
        <ele>12</ele>
        <time>2013-07-21T07:52:08Z</time>
      </trkpt>
      <trkpt lat="50.18374" lon="1.59279">
        <ele>9</ele>
        <time>2013-07-21T07:52:17Z</time>
      </trkpt>
      <trkpt lat="50.18386" lon="1.5929">
        <ele>6.6</ele>
        <time>2013-07-21T07:52:34Z</time>
      </trkpt>
      <trkpt lat="50.18393" lon="1.59309">
        <ele>5.8</ele>
        <time>2013-07-21T07:52:41Z</time>
      </trkpt>
      <trkpt lat="50.18401" lon="1.59327">
        <ele>4.6</ele>
        <time>2013-07-21T07:52:53Z</time>
      </trkpt>
      <trkpt lat="50.1841" lon="1.59346">
        <ele>3.6</ele>
        <time>2013-07-21T07:53:00Z</time>
      </trkpt>
      <trkpt lat="50.18421" lon="1.59358">
        <ele>7</ele>
        <time>2013-07-21T07:53:15Z</time>
      </trkpt>
      <trkpt lat="50.1843" lon="1.59374">
        <ele>1.5</ele>
        <time>2013-07-21T07:53:25Z</time>
      </trkpt>
      <trkpt lat="50.18441" lon="1.59389">
        <ele>2.9</ele>
        <time>2013-07-21T07:53:36Z</time>
      </trkpt>
      <trkpt lat="50.18452" lon="1.59405">
        <ele>4.4</ele>
        <time>2013-07-21T07:53:44Z</time>
      </trkpt>
      <trkpt lat="50.18462" lon="1.59419">
        <ele>6.1</ele>
        <time>2013-07-21T07:53:53Z</time>
      </trkpt>
      <trkpt lat="50.18471" lon="1.59437">
        <ele>7.3</ele>
        <time>2013-07-21T07:54:02Z</time>
      </trkpt>
      <trkpt lat="50.18482" lon="1.59449">
        <ele>8.2</ele>
        <time>2013-07-21T07:54:14Z</time>
      </trkpt>
      <trkpt lat="50.18486" lon="1.59471">
        <ele>9</ele>
        <time>2013-07-21T07:54:24Z</time>
      </trkpt>
      <trkpt lat="50.18493" lon="1.59491">
        <ele>9.8</ele>
        <time>2013-07-21T07:54:35Z</time>
      </trkpt>
      <trkpt lat="50.185" lon="1.5951">
        <ele>10.8</ele>
        <time>2013-07-21T07:54:46Z</time>
      </trkpt>
      <trkpt lat="50.18504" lon="1.5953">
        <ele>11.6</ele>
        <time>2013-07-21T07:54:55Z</time>
      </trkpt>
      <trkpt lat="50.18514" lon="1.59544">
        <ele>10.8</ele>
        <time>2013-07-21T07:55:04Z</time>
      </trkpt>
      <trkpt lat="50.18521" lon="1.59562">
        <ele>4</ele>
        <time>2013-07-21T07:55:16Z</time>
      </trkpt>
      <trkpt lat="50.1853" lon="1.59578">
        <ele>6.9</ele>
        <time>2013-07-21T07:55:29Z</time>
      </trkpt>
      <trkpt lat="50.18533" lon="1.59599">
        <ele>6.2</ele>
        <time>2013-07-21T07:55:37Z</time>
      </trkpt>
      <trkpt lat="50.18538" lon="1.59621">
        <ele>4.6</ele>
        <time>2013-07-21T07:55:45Z</time>
      </trkpt>
      <trkpt lat="50.18543" lon="1.59641">
        <ele>4.2</ele>
        <time>2013-07-21T07:55:52Z</time>
      </trkpt>
      <trkpt lat="50.1855" lon="1.59661">
        <ele>4</ele>
        <time>2013-07-21T07:56:05Z</time>
      </trkpt>
      <trkpt lat="50.18556" lon="1.59681">
        <ele>2.2</ele>
        <time>2013-07-21T07:56:15Z</time>
      </trkpt>
      <trkpt lat="50.18561" lon="1.597">
        <ele>0.2</ele>
        <time>2013-07-21T07:56:25Z</time>
      </trkpt>
      <trkpt lat="50.18567" lon="1.5972">
        <ele>-3</ele>
        <time>2013-07-21T07:56:36Z</time>
      </trkpt>
      <trkpt lat="50.18574" lon="1.59739">
        <ele>-6.4</ele>
        <time>2013-07-21T07:56:48Z</time>
      </trkpt>
      <trkpt lat="50.1858" lon="1.59758">
        <ele>-13.1</ele>
        <time>2013-07-21T07:57:11Z</time>
      </trkpt>
      <trkpt lat="50.18586" lon="1.59777">
        <ele>-14.9</ele>
        <time>2013-07-21T07:57:19Z</time>
      </trkpt>
      <trkpt lat="50.18591" lon="1.59799">
        <ele>-14</ele>
        <time>2013-07-21T07:57:46Z</time>
      </trkpt>
      <trkpt lat="50.18598" lon="1.59818">
        <ele>-14.4</ele>
        <time>2013-07-21T07:57:53Z</time>
      </trkpt>
      <trkpt lat="50.18605" lon="1.59837">
        <ele>-15.4</ele>
        <time>2013-07-21T07:58:00Z</time>
      </trkpt>
      <trkpt lat="50.18609" lon="1.59859">
        <ele>-16.7</ele>
        <time>2013-07-21T07:58:09Z</time>
      </trkpt>
      <trkpt lat="50.18614" lon="1.59879">
        <ele>-16.7</ele>
        <time>2013-07-21T07:58:16Z</time>
      </trkpt>
      <trkpt lat="50.18625" lon="1.59894">
        <ele>-16.1</ele>
        <time>2013-07-21T07:58:24Z</time>
      </trkpt>
      <trkpt lat="50.18633" lon="1.59911">
        <ele>-15.4</ele>
        <time>2013-07-21T07:58:34Z</time>
      </trkpt>
      <trkpt lat="50.18641" lon="1.59929">
        <ele>-14.8</ele>
        <time>2013-07-21T07:58:43Z</time>
      </trkpt>
      <trkpt lat="50.1865" lon="1.59947">
        <ele>-14.1</ele>
        <time>2013-07-21T07:58:53Z</time>
      </trkpt>
      <trkpt lat="50.18655" lon="1.59968">
        <ele>-13.4</ele>
        <time>2013-07-21T07:59:03Z</time>
      </trkpt>
      <trkpt lat="50.18661" lon="1.59989">
        <ele>-12.7</ele>
        <time>2013-07-21T07:59:13Z</time>
      </trkpt>
      <trkpt lat="50.1867" lon="1.60006">
        <ele>-12.1</ele>
        <time>2013-07-21T07:59:22Z</time>
      </trkpt>
      <trkpt lat="50.18683" lon="1.60016">
        <ele>-6</ele>
        <time>2013-07-21T07:59:29Z</time>
      </trkpt>
      <trkpt lat="50.18691" lon="1.60034">
        <ele>-1.8</ele>
        <time>2013-07-21T07:59:41Z</time>
      </trkpt>
      <trkpt lat="50.18699" lon="1.60052">
        <ele>6.5</ele>
        <time>2013-07-21T07:59:50Z</time>
      </trkpt>
      <trkpt lat="50.18705" lon="1.60072">
        <ele>1.6</ele>
        <time>2013-07-21T07:59:58Z</time>
      </trkpt>
      <trkpt lat="50.18721" lon="1.60109">
        <ele>0.4</ele>
        <time>2013-07-21T08:00:11Z</time>
      </trkpt>
      <trkpt lat="50.18721" lon="1.60109">
        <ele>0.4</ele>
        <time>2013-07-21T08:00:51Z</time>
      </trkpt>
      <trkpt lat="50.18729" lon="1.60129">
        <ele>1.4</ele>
        <time>2013-07-21T08:00:53Z</time>
      </trkpt>
      <trkpt lat="50.18734" lon="1.60148">
        <ele>2.9</ele>
        <time>2013-07-21T08:01:01Z</time>
      </trkpt>
      <trkpt lat="50.18739" lon="1.60169">
        <ele>3.8</ele>
        <time>2013-07-21T08:01:06Z</time>
      </trkpt>
      <trkpt lat="50.18748" lon="1.6019">
        <ele>7</ele>
        <time>2013-07-21T08:01:12Z</time>
      </trkpt>
      <trkpt lat="50.18754" lon="1.60209">
        <ele>9</ele>
        <time>2013-07-21T08:01:18Z</time>
      </trkpt>
      <trkpt lat="50.1876" lon="1.6023">
        <ele>7.5</ele>
        <time>2013-07-21T08:01:25Z</time>
      </trkpt>
      <trkpt lat="50.18768" lon="1.60247">
        <ele>6.3</ele>
        <time>2013-07-21T08:01:30Z</time>
      </trkpt>
      <trkpt lat="50.18772" lon="1.6027">
        <ele>5.7</ele>
        <time>2013-07-21T08:01:33Z</time>
      </trkpt>
      <trkpt lat="50.18775" lon="1.60281">
        <ele>5.5</ele>
        <time>2013-07-21T08:01:34Z</time>
      </trkpt>
      <trkpt lat="50.18777" lon="1.60272">
        <ele>5</ele>
        <time>2013-07-21T08:01:36Z</time>
      </trkpt>
      <trkpt lat="50.1878" lon="1.60272">
        <ele>4.7</ele>
        <time>2013-07-21T08:01:37Z</time>
      </trkpt>
      <trkpt lat="50.18781" lon="1.60275">
        <ele>4</ele>
        <time>2013-07-21T08:01:39Z</time>
      </trkpt>
      <trkpt lat="50.18776" lon="1.60271">
        <ele>3.7</ele>
        <time>2013-07-21T08:01:40Z</time>
      </trkpt>
      <trkpt lat="50.18778" lon="1.60292">
        <ele>5.3</ele>
        <time>2013-07-21T08:01:59Z</time>
      </trkpt>
      <trkpt lat="50.18787" lon="1.60311">
        <ele>2.7</ele>
        <time>2013-07-21T08:02:12Z</time>
      </trkpt>
      <trkpt lat="50.18793" lon="1.6033">
        <ele>1.4</ele>
        <time>2013-07-21T08:02:19Z</time>
      </trkpt>
      <trkpt lat="50.18799" lon="1.6035">
        <ele>3.6</ele>
        <time>2013-07-21T08:02:37Z</time>
      </trkpt>
      <trkpt lat="50.18812" lon="1.6036">
        <ele>4.8</ele>
        <time>2013-07-21T08:02:46Z</time>
      </trkpt>
      <trkpt lat="50.18818" lon="1.60381">
        <ele>7.5</ele>
        <time>2013-07-21T08:02:53Z</time>
      </trkpt>
      <trkpt lat="50.18827" lon="1.60398">
        <ele>2.3</ele>
        <time>2013-07-21T08:03:06Z</time>
      </trkpt>
      <trkpt lat="50.1883" lon="1.6042">
        <ele>5.4</ele>
        <time>2013-07-21T08:03:16Z</time>
      </trkpt>
      <trkpt lat="50.18834" lon="1.60441">
        <ele>8.6</ele>
        <time>2013-07-21T08:03:25Z</time>
      </trkpt>
      <trkpt lat="50.1884" lon="1.6046">
        <ele>11.6</ele>
        <time>2013-07-21T08:03:33Z</time>
      </trkpt>
      <trkpt lat="50.18845" lon="1.6048">
        <ele>14.7</ele>
        <time>2013-07-21T08:03:43Z</time>
      </trkpt>
      <trkpt lat="50.18854" lon="1.60496">
        <ele>14.2</ele>
        <time>2013-07-21T08:03:53Z</time>
      </trkpt>
      <trkpt lat="50.18859" lon="1.60517">
        <ele>17</ele>
        <time>2013-07-21T08:04:03Z</time>
      </trkpt>
      <trkpt lat="50.18881" lon="1.60549">
        <ele>8.8</ele>
        <time>2013-07-21T08:04:15Z</time>
      </trkpt>
      <trkpt lat="50.18881" lon="1.60549">
        <ele>8.8</ele>
        <time>2013-07-21T08:05:09Z</time>
      </trkpt>
      <trkpt lat="50.18893" lon="1.60566">
        <ele>2.9</ele>
        <time>2013-07-21T08:05:11Z</time>
      </trkpt>
      <trkpt lat="50.18899" lon="1.60588">
        <ele>6</ele>
        <time>2013-07-21T08:05:21Z</time>
      </trkpt>
      <trkpt lat="50.18906" lon="1.60608">
        <ele>2</ele>
        <time>2013-07-21T08:05:31Z</time>
      </trkpt>
      <trkpt lat="50.18916" lon="1.60624">
        <ele>-0.5</ele>
        <time>2013-07-21T08:05:44Z</time>
      </trkpt>
      <trkpt lat="50.18922" lon="1.60645">
        <ele>-2</ele>
        <time>2013-07-21T08:05:52Z</time>
      </trkpt>
      <trkpt lat="50.1893" lon="1.60663">
        <ele>-5.3</ele>
        <time>2013-07-21T08:06:02Z</time>
      </trkpt>
      <trkpt lat="50.18937" lon="1.60682">
        <ele>-8.7</ele>
        <time>2013-07-21T08:06:11Z</time>
      </trkpt>
      <trkpt lat="50.18944" lon="1.60702">
        <ele>-6.6</ele>
        <time>2013-07-21T08:06:24Z</time>
      </trkpt>
      <trkpt lat="50.18951" lon="1.60722">
        <ele>-8.3</ele>
        <time>2013-07-21T08:06:33Z</time>
      </trkpt>
      <trkpt lat="50.18959" lon="1.60741">
        <ele>-10.6</ele>
        <time>2013-07-21T08:06:45Z</time>
      </trkpt>
      <trkpt lat="50.18964" lon="1.60761">
        <ele>-13.3</ele>
        <time>2013-07-21T08:06:56Z</time>
      </trkpt>
      <trkpt lat="50.1897" lon="1.60781">
        <ele>-12</ele>
        <time>2013-07-21T08:07:08Z</time>
      </trkpt>
      <trkpt lat="50.1898" lon="1.608">
        <ele>-5.5</ele>
        <time>2013-07-21T08:07:18Z</time>
      </trkpt>
      <trkpt lat="50.18991" lon="1.60815">
        <ele>1.5</ele>
        <time>2013-07-21T08:07:32Z</time>
      </trkpt>
      <trkpt lat="50.18998" lon="1.60839">
        <ele>6</ele>
        <time>2013-07-21T08:07:43Z</time>
      </trkpt>
      <trkpt lat="50.19008" lon="1.60855">
        <ele>5.1</ele>
        <time>2013-07-21T08:07:53Z</time>
      </trkpt>
      <trkpt lat="50.19014" lon="1.60876">
        <ele>3.9</ele>
        <time>2013-07-21T08:08:02Z</time>
      </trkpt>
      <trkpt lat="50.19021" lon="1.60894">
        <ele>3.3</ele>
        <time>2013-07-21T08:08:12Z</time>
      </trkpt>
      <trkpt lat="50.19029" lon="1.60912">
        <ele>3.9</ele>
        <time>2013-07-21T08:08:24Z</time>
      </trkpt>
      <trkpt lat="50.19035" lon="1.60932">
        <ele>3.4</ele>
        <time>2013-07-21T08:08:34Z</time>
      </trkpt>
      <trkpt lat="50.19039" lon="1.60953">
        <ele>3</ele>
        <time>2013-07-21T08:08:45Z</time>
      </trkpt>
      <trkpt lat="50.19044" lon="1.60975">
        <ele>2.6</ele>
        <time>2013-07-21T08:08:55Z</time>
      </trkpt>
      <trkpt lat="50.1905" lon="1.60998">
        <ele>2.2</ele>
        <time>2013-07-21T08:09:03Z</time>
      </trkpt>
      <trkpt lat="50.19058" lon="1.61016">
        <ele>1.7</ele>
        <time>2013-07-21T08:09:15Z</time>
      </trkpt>
      <trkpt lat="50.19066" lon="1.61035">
        <ele>1.3</ele>
        <time>2013-07-21T08:09:25Z</time>
      </trkpt>
      <trkpt lat="50.19075" lon="1.61051">
        <ele>-1.7</ele>
        <time>2013-07-21T08:09:36Z</time>
      </trkpt>
      <trkpt lat="50.19084" lon="1.61068">
        <ele>-0.2</ele>
        <time>2013-07-21T08:09:45Z</time>
      </trkpt>
      <trkpt lat="50.19091" lon="1.61089">
        <ele>3.5</ele>
        <time>2013-07-21T08:09:53Z</time>
      </trkpt>
      <trkpt lat="50.191" lon="1.61106">
        <ele>9</ele>
        <time>2013-07-21T08:10:04Z</time>
      </trkpt>
      <trkpt lat="50.19106" lon="1.61125">
        <ele>12.2</ele>
        <time>2013-07-21T08:10:15Z</time>
      </trkpt>
      <trkpt lat="50.1911" lon="1.61147">
        <ele>12.7</ele>
        <time>2013-07-21T08:10:25Z</time>
      </trkpt>
      <trkpt lat="50.19117" lon="1.61166">
        <ele>13</ele>
        <time>2013-07-21T08:10:36Z</time>
      </trkpt>
      <trkpt lat="50.19122" lon="1.61185">
        <ele>10</ele>
        <time>2013-07-21T08:10:45Z</time>
      </trkpt>
      <trkpt lat="50.19131" lon="1.61204">
        <ele>10.6</ele>
        <time>2013-07-21T08:10:57Z</time>
      </trkpt>
      <trkpt lat="50.19143" lon="1.61214">
        <ele>11.5</ele>
        <time>2013-07-21T08:11:06Z</time>
      </trkpt>
      <trkpt lat="50.19155" lon="1.61224">
        <ele>12.7</ele>
        <time>2013-07-21T08:11:17Z</time>
      </trkpt>
      <trkpt lat="50.19167" lon="1.61236">
        <ele>14</ele>
        <time>2013-07-21T08:11:31Z</time>
      </trkpt>
      <trkpt lat="50.1918" lon="1.61247">
        <ele>13.6</ele>
        <time>2013-07-21T08:11:41Z</time>
      </trkpt>
      <trkpt lat="50.19195" lon="1.61283">
        <ele>12.1</ele>
        <time>2013-07-21T08:12:02Z</time>
      </trkpt>
      <trkpt lat="50.19195" lon="1.61283">
        <ele>12.1</ele>
        <time>2013-07-21T08:12:34Z</time>
      </trkpt>
      <trkpt lat="50.19198" lon="1.61307">
        <ele>11.2</ele>
        <time>2013-07-21T08:12:39Z</time>
      </trkpt>
      <trkpt lat="50.19195" lon="1.61329">
        <ele>10.5</ele>
        <time>2013-07-21T08:12:57Z</time>
      </trkpt>
      <trkpt lat="50.19182" lon="1.61343">
        <ele>10.2</ele>
        <time>2013-07-21T08:13:06Z</time>
      </trkpt>
      <trkpt lat="50.19175" lon="1.61362">
        <ele>10.7</ele>
        <time>2013-07-21T08:13:19Z</time>
      </trkpt>
      <trkpt lat="50.19163" lon="1.61374">
        <ele>11.6</ele>
        <time>2013-07-21T08:13:30Z</time>
      </trkpt>
      <trkpt lat="50.19149" lon="1.61387">
        <ele>12.5</ele>
        <time>2013-07-21T08:13:42Z</time>
      </trkpt>
      <trkpt lat="50.19138" lon="1.61402">
        <ele>14.9</ele>
        <time>2013-07-21T08:14:01Z</time>
      </trkpt>
      <trkpt lat="50.19134" lon="1.61424">
        <ele>20</ele>
        <time>2013-07-21T08:14:28Z</time>
      </trkpt>
      <trkpt lat="50.19131" lon="1.61446">
        <ele>21.9</ele>
        <time>2013-07-21T08:14:37Z</time>
      </trkpt>
      <trkpt lat="50.19127" lon="1.61467">
        <ele>21.5</ele>
        <time>2013-07-21T08:14:46Z</time>
      </trkpt>
      <trkpt lat="50.19121" lon="1.61488">
        <ele>21</ele>
        <time>2013-07-21T08:14:56Z</time>
      </trkpt>
      <trkpt lat="50.19116" lon="1.61508">
        <ele>21.8</ele>
        <time>2013-07-21T08:15:05Z</time>
      </trkpt>
      <trkpt lat="50.19108" lon="1.61527">
        <ele>21.2</ele>
        <time>2013-07-21T08:15:16Z</time>
      </trkpt>
      <trkpt lat="50.19099" lon="1.61544">
        <ele>23.6</ele>
        <time>2013-07-21T08:15:26Z</time>
      </trkpt>
      <trkpt lat="50.1909" lon="1.61561">
        <ele>27</ele>
        <time>2013-07-21T08:15:38Z</time>
      </trkpt>
      <trkpt lat="50.19074" lon="1.61604">
        <ele>26.4</ele>
        <time>2013-07-21T08:15:57Z</time>
      </trkpt>
      <trkpt lat="50.19074" lon="1.61604">
        <ele>26.4</ele>
        <time>2013-07-21T08:16:31Z</time>
      </trkpt>
      <trkpt lat="50.19067" lon="1.61632">
        <ele>24.4</ele>
        <time>2013-07-21T08:16:35Z</time>
      </trkpt>
      <trkpt lat="50.19056" lon="1.61646">
        <ele>22.9</ele>
        <time>2013-07-21T08:16:45Z</time>
      </trkpt>
      <trkpt lat="50.1905" lon="1.61669">
        <ele>22.5</ele>
        <time>2013-07-21T08:16:51Z</time>
      </trkpt>
      <trkpt lat="50.19047" lon="1.61689">
        <ele>22.2</ele>
        <time>2013-07-21T08:16:56Z</time>
      </trkpt>
      <trkpt lat="50.1904" lon="1.61709">
        <ele>21.4</ele>
        <time>2013-07-21T08:17:08Z</time>
      </trkpt>
      <trkpt lat="50.19031" lon="1.61727">
        <ele>20.8</ele>
        <time>2013-07-21T08:17:18Z</time>
      </trkpt>
      <trkpt lat="50.19025" lon="1.61746">
        <ele>20.2</ele>
        <time>2013-07-21T08:17:28Z</time>
      </trkpt>
      <trkpt lat="50.19018" lon="1.61784">
        <ele>15.7</ele>
        <time>2013-07-21T08:17:39Z</time>
      </trkpt>
      <trkpt lat="50.19018" lon="1.61784">
        <ele>15.7</ele>
        <time>2013-07-21T08:18:58Z</time>
      </trkpt>
      <trkpt lat="50.19015" lon="1.618">
        <ele>12</ele>
        <time>2013-07-21T08:18:58Z</time>
      </trkpt>
      <trkpt lat="50.19004" lon="1.61814">
        <ele>10.3</ele>
        <time>2013-07-21T08:19:10Z</time>
      </trkpt>
      <trkpt lat="50.19004" lon="1.61836">
        <ele>9.1</ele>
        <time>2013-07-21T08:19:18Z</time>
      </trkpt>
      <trkpt lat="50.19003" lon="1.61859">
        <ele>8</ele>
        <time>2013-07-21T08:19:26Z</time>
      </trkpt>
      <trkpt lat="50.18996" lon="1.61878">
        <ele>5.3</ele>
        <time>2013-07-21T08:19:35Z</time>
      </trkpt>
      <trkpt lat="50.18996" lon="1.61901">
        <ele>6.9</ele>
        <time>2013-07-21T08:19:42Z</time>
      </trkpt>
      <trkpt lat="50.18992" lon="1.61922">
        <ele>8.5</ele>
        <time>2013-07-21T08:19:51Z</time>
      </trkpt>
      <trkpt lat="50.18987" lon="1.61943">
        <ele>9.5</ele>
        <time>2013-07-21T08:20:01Z</time>
      </trkpt>
      <trkpt lat="50.18986" lon="1.61965">
        <ele>6.9</ele>
        <time>2013-07-21T08:20:11Z</time>
      </trkpt>
      <trkpt lat="50.18982" lon="1.61986">
        <ele>5.7</ele>
        <time>2013-07-21T08:20:21Z</time>
      </trkpt>
      <trkpt lat="50.18976" lon="1.62006">
        <ele>4.6</ele>
        <time>2013-07-21T08:20:30Z</time>
      </trkpt>
      <trkpt lat="50.18969" lon="1.62027">
        <ele>3.4</ele>
        <time>2013-07-21T08:20:41Z</time>
      </trkpt>
      <trkpt lat="50.18961" lon="1.62042">
        <ele>2.3</ele>
        <time>2013-07-21T08:20:50Z</time>
      </trkpt>
      <trkpt lat="50.18962" lon="1.62063">
        <ele>1.3</ele>
        <time>2013-07-21T08:20:58Z</time>
      </trkpt>
      <trkpt lat="50.18954" lon="1.62081">
        <ele>1.8</ele>
        <time>2013-07-21T08:21:09Z</time>
      </trkpt>
      <trkpt lat="50.18949" lon="1.621">
        <ele>-0.2</ele>
        <time>2013-07-21T08:21:19Z</time>
      </trkpt>
      <trkpt lat="50.18946" lon="1.62129">
        <ele>-2.2</ele>
        <time>2013-07-21T08:21:30Z</time>
      </trkpt>
      <trkpt lat="50.18941" lon="1.62153">
        <ele>-4.1</ele>
        <time>2013-07-21T08:21:42Z</time>
      </trkpt>
      <trkpt lat="50.1894" lon="1.62175">
        <ele>-4.5</ele>
        <time>2013-07-21T08:21:45Z</time>
      </trkpt>
      <trkpt lat="50.18937" lon="1.62196">
        <ele>-5.8</ele>
        <time>2013-07-21T08:21:58Z</time>
      </trkpt>
      <trkpt lat="50.18936" lon="1.62218">
        <ele>-3.5</ele>
        <time>2013-07-21T08:22:09Z</time>
      </trkpt>
      <trkpt lat="50.18927" lon="1.62243">
        <ele>-1.2</ele>
        <time>2013-07-21T08:22:19Z</time>
      </trkpt>
      <trkpt lat="50.18924" lon="1.62265">
        <ele>-0.2</ele>
        <time>2013-07-21T08:22:33Z</time>
      </trkpt>
      <trkpt lat="50.18929" lon="1.62286">
        <ele>-2.8</ele>
        <time>2013-07-21T08:22:42Z</time>
      </trkpt>
      <trkpt lat="50.18934" lon="1.6231">
        <ele>-4.3</ele>
        <time>2013-07-21T08:22:48Z</time>
      </trkpt>
      <trkpt lat="50.18927" lon="1.62329">
        <ele>-5.8</ele>
        <time>2013-07-21T08:22:59Z</time>
      </trkpt>
      <trkpt lat="50.18925" lon="1.62351">
        <ele>-7.3</ele>
        <time>2013-07-21T08:23:10Z</time>
      </trkpt>
      <trkpt lat="50.18934" lon="1.62375">
        <ele>-8</ele>
        <time>2013-07-21T08:23:18Z</time>
      </trkpt>
      <trkpt lat="50.18931" lon="1.62399">
        <ele>-8.3</ele>
        <time>2013-07-21T08:23:31Z</time>
      </trkpt>
      <trkpt lat="50.18932" lon="1.62422">
        <ele>-4.4</ele>
        <time>2013-07-21T08:23:39Z</time>
      </trkpt>
      <trkpt lat="50.18934" lon="1.62444">
        <ele>-2.4</ele>
        <time>2013-07-21T08:23:50Z</time>
      </trkpt>
      <trkpt lat="50.18935" lon="1.62466">
        <ele>-0.7</ele>
        <time>2013-07-21T08:23:59Z</time>
      </trkpt>
      <trkpt lat="50.18934" lon="1.62487">
        <ele>2</ele>
        <time>2013-07-21T08:24:08Z</time>
      </trkpt>
      <trkpt lat="50.18933" lon="1.62508">
        <ele>4.1</ele>
        <time>2013-07-21T08:24:19Z</time>
      </trkpt>
      <trkpt lat="50.18931" lon="1.6253">
        <ele>4.6</ele>
        <time>2013-07-21T08:24:28Z</time>
      </trkpt>
      <trkpt lat="50.18932" lon="1.62553">
        <ele>3.3</ele>
        <time>2013-07-21T08:24:43Z</time>
      </trkpt>
      <trkpt lat="50.18937" lon="1.62564">
        <ele>4.2</ele>
        <time>2013-07-21T08:24:53Z</time>
      </trkpt>
      <trkpt lat="50.18927" lon="1.62582">
        <ele>6.2</ele>
        <time>2013-07-21T08:25:04Z</time>
      </trkpt>
      <trkpt lat="50.1893" lon="1.62606">
        <ele>7.8</ele>
        <time>2013-07-21T08:25:13Z</time>
      </trkpt>
      <trkpt lat="50.18937" lon="1.6263">
        <ele>5.3</ele>
        <time>2013-07-21T08:25:19Z</time>
      </trkpt>
      <trkpt lat="50.18945" lon="1.62649">
        <ele>7</ele>
        <time>2013-07-21T08:25:33Z</time>
      </trkpt>
      <trkpt lat="50.1896" lon="1.62662">
        <ele>-2.7</ele>
        <time>2013-07-21T08:25:44Z</time>
      </trkpt>
      <trkpt lat="50.18972" lon="1.62672">
        <ele>-5.8</ele>
        <time>2013-07-21T08:25:59Z</time>
      </trkpt>
      <trkpt lat="50.18985" lon="1.62684">
        <ele>-4</ele>
        <time>2013-07-21T08:26:08Z</time>
      </trkpt>
      <trkpt lat="50.18999" lon="1.62693">
        <ele>0.5</ele>
        <time>2013-07-21T08:26:17Z</time>
      </trkpt>
      <trkpt lat="50.19011" lon="1.62704">
        <ele>5</ele>
        <time>2013-07-21T08:26:26Z</time>
      </trkpt>
      <trkpt lat="50.19018" lon="1.62722">
        <ele>8.3</ele>
        <time>2013-07-21T08:26:35Z</time>
      </trkpt>
      <trkpt lat="50.19016" lon="1.62745">
        <ele>10.3</ele>
        <time>2013-07-21T08:26:46Z</time>
      </trkpt>
      <trkpt lat="50.19013" lon="1.62766">
        <ele>12.7</ele>
        <time>2013-07-21T08:27:02Z</time>
      </trkpt>
      <trkpt lat="50.19006" lon="1.62786">
        <ele>14.3</ele>
        <time>2013-07-21T08:27:17Z</time>
      </trkpt>
      <trkpt lat="50.19" lon="1.62806">
        <ele>11</ele>
        <time>2013-07-21T08:27:26Z</time>
      </trkpt>
      <trkpt lat="50.18993" lon="1.62827">
        <ele>14.3</ele>
        <time>2013-07-21T08:27:35Z</time>
      </trkpt>
      <trkpt lat="50.18987" lon="1.62848">
        <ele>12</ele>
        <time>2013-07-21T08:27:49Z</time>
      </trkpt>
      <trkpt lat="50.18982" lon="1.62868">
        <ele>11.4</ele>
        <time>2013-07-21T08:27:55Z</time>
      </trkpt>
      <trkpt lat="50.18975" lon="1.62888">
        <ele>10.2</ele>
        <time>2013-07-21T08:28:06Z</time>
      </trkpt>
      <trkpt lat="50.1897" lon="1.6291">
        <ele>9.2</ele>
        <time>2013-07-21T08:28:16Z</time>
      </trkpt>
      <trkpt lat="50.18961" lon="1.62928">
        <ele>8</ele>
        <time>2013-07-21T08:28:27Z</time>
      </trkpt>
      <trkpt lat="50.18955" lon="1.62948">
        <ele>6.7</ele>
        <time>2013-07-21T08:28:39Z</time>
      </trkpt>
      <trkpt lat="50.18948" lon="1.62966">
        <ele>5.9</ele>
        <time>2013-07-21T08:28:47Z</time>
      </trkpt>
      <trkpt lat="50.18943" lon="1.62987">
        <ele>3.8</ele>
        <time>2013-07-21T08:28:57Z</time>
      </trkpt>
      <trkpt lat="50.18937" lon="1.63009">
        <ele>3.6</ele>
        <time>2013-07-21T08:29:09Z</time>
      </trkpt>
      <trkpt lat="50.18931" lon="1.63029">
        <ele>6.2</ele>
        <time>2013-07-21T08:29:19Z</time>
      </trkpt>
      <trkpt lat="50.18922" lon="1.63047">
        <ele>5.2</ele>
        <time>2013-07-21T08:29:27Z</time>
      </trkpt>
      <trkpt lat="50.18914" lon="1.63068">
        <ele>4</ele>
        <time>2013-07-21T08:29:36Z</time>
      </trkpt>
      <trkpt lat="50.18909" lon="1.63089">
        <ele>7.7</ele>
        <time>2013-07-21T08:29:47Z</time>
      </trkpt>
      <trkpt lat="50.18902" lon="1.63107">
        <ele>13.4</ele>
        <time>2013-07-21T08:29:58Z</time>
      </trkpt>
      <trkpt lat="50.18896" lon="1.63128">
        <ele>10.5</ele>
        <time>2013-07-21T08:30:11Z</time>
      </trkpt>
      <trkpt lat="50.18891" lon="1.6315">
        <ele>15</ele>
        <time>2013-07-21T08:30:20Z</time>
      </trkpt>
      <trkpt lat="50.18886" lon="1.6317">
        <ele>14.5</ele>
        <time>2013-07-21T08:30:32Z</time>
      </trkpt>
      <trkpt lat="50.18881" lon="1.6319">
        <ele>10.5</ele>
        <time>2013-07-21T08:30:41Z</time>
      </trkpt>
      <trkpt lat="50.18873" lon="1.63209">
        <ele>9.8</ele>
        <time>2013-07-21T08:30:51Z</time>
      </trkpt>
      <trkpt lat="50.18871" lon="1.63232">
        <ele>9.7</ele>
        <time>2013-07-21T08:31:00Z</time>
      </trkpt>
      <trkpt lat="50.18867" lon="1.63254">
        <ele>9.3</ele>
        <time>2013-07-21T08:31:15Z</time>
      </trkpt>
      <trkpt lat="50.18859" lon="1.63271">
        <ele>9.1</ele>
        <time>2013-07-21T08:31:26Z</time>
      </trkpt>
      <trkpt lat="50.18851" lon="1.63293">
        <ele>10</ele>
        <time>2013-07-21T08:31:35Z</time>
      </trkpt>
      <trkpt lat="50.18846" lon="1.63314">
        <ele>12.8</ele>
        <time>2013-07-21T08:31:49Z</time>
      </trkpt>
      <trkpt lat="50.18839" lon="1.63332">
        <ele>9.5</ele>
        <time>2013-07-21T08:32:03Z</time>
      </trkpt>
      <trkpt lat="50.18833" lon="1.63354">
        <ele>8.6</ele>
        <time>2013-07-21T08:32:16Z</time>
      </trkpt>
      <trkpt lat="50.1883" lon="1.63375">
        <ele>7.5</ele>
        <time>2013-07-21T08:32:32Z</time>
      </trkpt>
      <trkpt lat="50.18825" lon="1.63394">
        <ele>6.1</ele>
        <time>2013-07-21T08:32:44Z</time>
      </trkpt>
      <trkpt lat="50.18818" lon="1.63414">
        <ele>9.7</ele>
        <time>2013-07-21T08:32:57Z</time>
      </trkpt>
      <trkpt lat="50.18816" lon="1.63435">
        <ele>4.8</ele>
        <time>2013-07-21T08:33:16Z</time>
      </trkpt>
      <trkpt lat="50.18809" lon="1.63454">
        <ele>7.1</ele>
        <time>2013-07-21T08:33:39Z</time>
      </trkpt>
      <trkpt lat="50.18799" lon="1.6347">
        <ele>6.2</ele>
        <time>2013-07-21T08:33:50Z</time>
      </trkpt>
      <trkpt lat="50.18794" lon="1.6349">
        <ele>8.2</ele>
        <time>2013-07-21T08:33:59Z</time>
      </trkpt>
      <trkpt lat="50.18789" lon="1.6351">
        <ele>11.5</ele>
        <time>2013-07-21T08:34:14Z</time>
      </trkpt>
      <trkpt lat="50.18782" lon="1.63528">
        <ele>10.1</ele>
        <time>2013-07-21T08:34:23Z</time>
      </trkpt>
      <trkpt lat="50.18778" lon="1.63549">
        <ele>9.5</ele>
        <time>2013-07-21T08:34:35Z</time>
      </trkpt>
      <trkpt lat="50.18762" lon="1.63592">
        <ele>9.2</ele>
        <time>2013-07-21T08:34:49Z</time>
      </trkpt>
      <trkpt lat="50.18762" lon="1.63592">
        <ele>9.2</ele>
        <time>2013-07-21T08:35:27Z</time>
      </trkpt>
      <trkpt lat="50.18754" lon="1.63616">
        <ele>8.5</ele>
        <time>2013-07-21T08:35:34Z</time>
      </trkpt>
      <trkpt lat="50.18738" lon="1.63665">
        <ele>4.7</ele>
        <time>2013-07-21T08:36:01Z</time>
      </trkpt>
      <trkpt lat="50.18738" lon="1.63665">
        <ele>4.7</ele>
        <time>2013-07-21T08:36:44Z</time>
      </trkpt>
      <trkpt lat="50.18728" lon="1.63694">
        <ele>2.2</ele>
        <time>2013-07-21T08:36:51Z</time>
      </trkpt>
      <trkpt lat="50.1872" lon="1.63713">
        <ele>2.6</ele>
        <time>2013-07-21T08:36:56Z</time>
      </trkpt>
      <trkpt lat="50.18715" lon="1.63734">
        <ele>3.5</ele>
        <time>2013-07-21T08:37:06Z</time>
      </trkpt>
      <trkpt lat="50.18713" lon="1.63757">
        <ele>4.9</ele>
        <time>2013-07-21T08:37:24Z</time>
      </trkpt>
      <trkpt lat="50.18708" lon="1.63773">
        <ele>6.4</ele>
        <time>2013-07-21T08:37:42Z</time>
      </trkpt>
      <trkpt lat="50.18694" lon="1.63805">
        <ele>4.8</ele>
        <time>2013-07-21T08:38:09Z</time>
      </trkpt>
      <trkpt lat="50.18694" lon="1.63805">
        <ele>4.8</ele>
        <time>2013-07-21T08:38:45Z</time>
      </trkpt>
      <trkpt lat="50.18683" lon="1.63816">
        <ele>5.2</ele>
        <time>2013-07-21T08:38:47Z</time>
      </trkpt>
      <trkpt lat="50.1867" lon="1.63805">
        <ele>5.6</ele>
        <time>2013-07-21T08:39:02Z</time>
      </trkpt>
      <trkpt lat="50.18661" lon="1.638">
        <ele>5.8</ele>
        <time>2013-07-21T08:39:11Z</time>
      </trkpt>
      <trkpt lat="50.18657" lon="1.63823">
        <ele>6.8</ele>
        <time>2013-07-21T08:39:21Z</time>
      </trkpt>
      <trkpt lat="50.18652" lon="1.63843">
        <ele>7.2</ele>
        <time>2013-07-21T08:39:30Z</time>
      </trkpt>
      <trkpt lat="50.18649" lon="1.63864">
        <ele>5.9</ele>
        <time>2013-07-21T08:39:39Z</time>
      </trkpt>
      <trkpt lat="50.18647" lon="1.63885">
        <ele>6.1</ele>
        <time>2013-07-21T08:39:49Z</time>
      </trkpt>
      <trkpt lat="50.18645" lon="1.63907">
        <ele>9.8</ele>
        <time>2013-07-21T08:39:59Z</time>
      </trkpt>
      <trkpt lat="50.18641" lon="1.63927">
        <ele>13</ele>
        <time>2013-07-21T08:40:07Z</time>
      </trkpt>
      <trkpt lat="50.18638" lon="1.6395">
        <ele>8.9</ele>
        <time>2013-07-21T08:40:18Z</time>
      </trkpt>
      <trkpt lat="50.18638" lon="1.63967">
        <ele>10.3</ele>
        <time>2013-07-21T08:40:26Z</time>
      </trkpt>
      <trkpt lat="50.18649" lon="1.63981">
        <ele>7.6</ele>
        <time>2013-07-21T08:40:41Z</time>
      </trkpt>
      <trkpt lat="50.18642" lon="1.64">
        <ele>9.6</ele>
        <time>2013-07-21T08:40:56Z</time>
      </trkpt>
      <trkpt lat="50.18639" lon="1.64022">
        <ele>12.5</ele>
        <time>2013-07-21T08:41:04Z</time>
      </trkpt>
      <trkpt lat="50.18638" lon="1.64043">
        <ele>14.8</ele>
        <time>2013-07-21T08:41:19Z</time>
      </trkpt>
      <trkpt lat="50.18631" lon="1.64062">
        <ele>16</ele>
        <time>2013-07-21T08:41:29Z</time>
      </trkpt>
      <trkpt lat="50.18625" lon="1.64081">
        <ele>14</ele>
        <time>2013-07-21T08:41:39Z</time>
      </trkpt>
      <trkpt lat="50.18617" lon="1.64101">
        <ele>13.3</ele>
        <time>2013-07-21T08:41:46Z</time>
      </trkpt>
      <trkpt lat="50.18613" lon="1.64122">
        <ele>11.8</ele>
        <time>2013-07-21T08:42:00Z</time>
      </trkpt>
      <trkpt lat="50.18607" lon="1.64143">
        <ele>10.7</ele>
        <time>2013-07-21T08:42:10Z</time>
      </trkpt>
      <trkpt lat="50.18602" lon="1.64163">
        <ele>10.1</ele>
        <time>2013-07-21T08:42:18Z</time>
      </trkpt>
      <trkpt lat="50.18596" lon="1.64183">
        <ele>11.2</ele>
        <time>2013-07-21T08:42:30Z</time>
      </trkpt>
      <trkpt lat="50.18589" lon="1.64202">
        <ele>12</ele>
        <time>2013-07-21T08:42:39Z</time>
      </trkpt>
      <trkpt lat="50.18585" lon="1.64223">
        <ele>12.7</ele>
        <time>2013-07-21T08:42:47Z</time>
      </trkpt>
      <trkpt lat="50.18584" lon="1.64246">
        <ele>14.7</ele>
        <time>2013-07-21T08:42:59Z</time>
      </trkpt>
      <trkpt lat="50.18581" lon="1.64267">
        <ele>14</ele>
        <time>2013-07-21T08:43:11Z</time>
      </trkpt>
      <trkpt lat="50.18571" lon="1.64283">
        <ele>10.2</ele>
        <time>2013-07-21T08:43:20Z</time>
      </trkpt>
      <trkpt lat="50.18563" lon="1.64303">
        <ele>11.1</ele>
        <time>2013-07-21T08:43:30Z</time>
      </trkpt>
      <trkpt lat="50.18555" lon="1.64322">
        <ele>13.9</ele>
        <time>2013-07-21T08:43:39Z</time>
      </trkpt>
      <trkpt lat="50.18544" lon="1.64335">
        <ele>16</ele>
        <time>2013-07-21T08:43:46Z</time>
      </trkpt>
      <trkpt lat="50.18534" lon="1.64352">
        <ele>19.3</ele>
        <time>2013-07-21T08:43:58Z</time>
      </trkpt>
      <trkpt lat="50.18532" lon="1.64356">
        <ele>20.4</ele>
        <time>2013-07-21T08:44:02Z</time>
      </trkpt>
      <trkpt lat="50.18538" lon="1.64361">
        <ele>19.3</ele>
        <time>2013-07-21T08:44:18Z</time>
      </trkpt>
      <trkpt lat="50.18523" lon="1.64364">
        <ele>20</ele>
        <time>2013-07-21T08:44:25Z</time>
      </trkpt>
      <trkpt lat="50.18512" lon="1.64374">
        <ele>21.2</ele>
        <time>2013-07-21T08:44:30Z</time>
      </trkpt>
      <trkpt lat="50.18499" lon="1.64384">
        <ele>22.2</ele>
        <time>2013-07-21T08:44:38Z</time>
      </trkpt>
      <trkpt lat="50.18487" lon="1.64396">
        <ele>26.1</ele>
        <time>2013-07-21T08:44:48Z</time>
      </trkpt>
      <trkpt lat="50.18474" lon="1.64398">
        <ele>16</ele>
        <time>2013-07-21T08:44:58Z</time>
      </trkpt>
      <trkpt lat="50.1846" lon="1.64393">
        <ele>9.6</ele>
        <time>2013-07-21T08:45:08Z</time>
      </trkpt>
      <trkpt lat="50.18445" lon="1.64394">
        <ele>8.6</ele>
        <time>2013-07-21T08:45:17Z</time>
      </trkpt>
      <trkpt lat="50.18431" lon="1.6439">
        <ele>7.5</ele>
        <time>2013-07-21T08:45:26Z</time>
      </trkpt>
      <trkpt lat="50.18417" lon="1.64385">
        <ele>6.1</ele>
        <time>2013-07-21T08:45:39Z</time>
      </trkpt>
      <trkpt lat="50.18404" lon="1.6438">
        <ele>5</ele>
        <time>2013-07-21T08:45:50Z</time>
      </trkpt>
      <trkpt lat="50.18389" lon="1.64379">
        <ele>5</ele>
        <time>2013-07-21T08:46:00Z</time>
      </trkpt>
      <trkpt lat="50.18375" lon="1.64376">
        <ele>5.6</ele>
        <time>2013-07-21T08:46:10Z</time>
      </trkpt>
      <trkpt lat="50.18362" lon="1.64373">
        <ele>6.9</ele>
        <time>2013-07-21T08:46:19Z</time>
      </trkpt>
      <trkpt lat="50.18347" lon="1.64373">
        <ele>6.4</ele>
        <time>2013-07-21T08:46:30Z</time>
      </trkpt>
      <trkpt lat="50.18333" lon="1.64374">
        <ele>7.6</ele>
        <time>2013-07-21T08:46:41Z</time>
      </trkpt>
      <trkpt lat="50.18319" lon="1.64376">
        <ele>4.4</ele>
        <time>2013-07-21T08:46:48Z</time>
      </trkpt>
      <trkpt lat="50.18305" lon="1.64377">
        <ele>5.9</ele>
        <time>2013-07-21T08:46:56Z</time>
      </trkpt>
      <trkpt lat="50.18292" lon="1.64384">
        <ele>1.6</ele>
        <time>2013-07-21T08:47:08Z</time>
      </trkpt>
      <trkpt lat="50.18278" lon="1.64386">
        <ele>3.1</ele>
        <time>2013-07-21T08:47:19Z</time>
      </trkpt>
      <trkpt lat="50.18265" lon="1.64387">
        <ele>4.6</ele>
        <time>2013-07-21T08:47:29Z</time>
      </trkpt>
      <trkpt lat="50.18251" lon="1.64394">
        <ele>6.1</ele>
        <time>2013-07-21T08:47:39Z</time>
      </trkpt>
      <trkpt lat="50.18237" lon="1.644">
        <ele>4</ele>
        <time>2013-07-21T08:47:51Z</time>
      </trkpt>
      <trkpt lat="50.18224" lon="1.64409">
        <ele>0.2</ele>
        <time>2013-07-21T08:48:01Z</time>
      </trkpt>
      <trkpt lat="50.18209" lon="1.64409">
        <ele>-2.5</ele>
        <time>2013-07-21T08:48:10Z</time>
      </trkpt>
      <trkpt lat="50.18195" lon="1.64409">
        <ele>-5</ele>
        <time>2013-07-21T08:48:23Z</time>
      </trkpt>
      <trkpt lat="50.18183" lon="1.64421">
        <ele>-0.5</ele>
        <time>2013-07-21T08:48:33Z</time>
      </trkpt>
      <trkpt lat="50.18169" lon="1.64425">
        <ele>1.4</ele>
        <time>2013-07-21T08:48:43Z</time>
      </trkpt>
      <trkpt lat="50.18155" lon="1.64428">
        <ele>2.2</ele>
        <time>2013-07-21T08:48:58Z</time>
      </trkpt>
      <trkpt lat="50.18142" lon="1.64428">
        <ele>2.7</ele>
        <time>2013-07-21T08:49:09Z</time>
      </trkpt>
      <trkpt lat="50.18127" lon="1.6443">
        <ele>2.1</ele>
        <time>2013-07-21T08:49:22Z</time>
      </trkpt>
      <trkpt lat="50.18114" lon="1.6443">
        <ele>5.1</ele>
        <time>2013-07-21T08:49:30Z</time>
      </trkpt>
      <trkpt lat="50.181" lon="1.64428">
        <ele>8</ele>
        <time>2013-07-21T08:49:38Z</time>
      </trkpt>
      <trkpt lat="50.18086" lon="1.64424">
        <ele>13.8</ele>
        <time>2013-07-21T08:50:00Z</time>
      </trkpt>
      <trkpt lat="50.18058" lon="1.64421">
        <ele>9.9</ele>
        <time>2013-07-21T08:50:15Z</time>
      </trkpt>
      <trkpt lat="50.18058" lon="1.64421">
        <ele>9.9</ele>
        <time>2013-07-21T08:51:14Z</time>
      </trkpt>
      <trkpt lat="50.18044" lon="1.6442">
        <ele>6.8</ele>
        <time>2013-07-21T08:51:19Z</time>
      </trkpt>
      <trkpt lat="50.1803" lon="1.64417">
        <ele>6.4</ele>
        <time>2013-07-21T08:51:31Z</time>
      </trkpt>
      <trkpt lat="50.18017" lon="1.64413">
        <ele>6.1</ele>
        <time>2013-07-21T08:51:43Z</time>
      </trkpt>
      <trkpt lat="50.18003" lon="1.6441">
        <ele>5.8</ele>
        <time>2013-07-21T08:51:53Z</time>
      </trkpt>
      <trkpt lat="50.17989" lon="1.64405">
        <ele>5.5</ele>
        <time>2013-07-21T08:52:04Z</time>
      </trkpt>
      <trkpt lat="50.17974" lon="1.64405">
        <ele>5.1</ele>
        <time>2013-07-21T08:52:21Z</time>
      </trkpt>
      <trkpt lat="50.17964" lon="1.6439">
        <ele>4.5</ele>
        <time>2013-07-21T08:52:41Z</time>
      </trkpt>
      <trkpt lat="50.1795" lon="1.64388">
        <ele>4.2</ele>
        <time>2013-07-21T08:52:55Z</time>
      </trkpt>
      <trkpt lat="50.17937" lon="1.64383">
        <ele>4.1</ele>
        <time>2013-07-21T08:53:04Z</time>
      </trkpt>
      <trkpt lat="50.17921" lon="1.6438">
        <ele>4.6</ele>
        <time>2013-07-21T08:53:16Z</time>
      </trkpt>
      <trkpt lat="50.17908" lon="1.64377">
        <ele>4.8</ele>
        <time>2013-07-21T08:53:22Z</time>
      </trkpt>
      <trkpt lat="50.17895" lon="1.64368">
        <ele>5.3</ele>
        <time>2013-07-21T08:53:34Z</time>
      </trkpt>
      <trkpt lat="50.17881" lon="1.64365">
        <ele>5.6</ele>
        <time>2013-07-21T08:53:42Z</time>
      </trkpt>
      <trkpt lat="50.17867" lon="1.6436">
        <ele>6.1</ele>
        <time>2013-07-21T08:53:56Z</time>
      </trkpt>
      <trkpt lat="50.17861" lon="1.64354">
        <ele>6.3</ele>
        <time>2013-07-21T08:54:01Z</time>
      </trkpt>
      <trkpt lat="50.17859" lon="1.64361">
        <ele>6.5</ele>
        <time>2013-07-21T08:54:04Z</time>
      </trkpt>
      <trkpt lat="50.17849" lon="1.64347">
        <ele>6.6</ele>
        <time>2013-07-21T08:54:09Z</time>
      </trkpt>
      <trkpt lat="50.17836" lon="1.6434">
        <ele>6.9</ele>
        <time>2013-07-21T08:54:16Z</time>
      </trkpt>
      <trkpt lat="50.1783" lon="1.64335">
        <ele>7.9</ele>
        <time>2013-07-21T08:54:23Z</time>
      </trkpt>
      <trkpt lat="50.17835" lon="1.64314">
        <ele>9.5</ele>
        <time>2013-07-21T08:54:32Z</time>
      </trkpt>
      <trkpt lat="50.17837" lon="1.64292">
        <ele>7.3</ele>
        <time>2013-07-21T08:54:41Z</time>
      </trkpt>
      <trkpt lat="50.17842" lon="1.64272">
        <ele>5.4</ele>
        <time>2013-07-21T08:54:51Z</time>
      </trkpt>
      <trkpt lat="50.17846" lon="1.64251">
        <ele>6.3</ele>
        <time>2013-07-21T08:55:01Z</time>
      </trkpt>
      <trkpt lat="50.17856" lon="1.64233">
        <ele>7.7</ele>
        <time>2013-07-21T08:55:17Z</time>
      </trkpt>
      <trkpt lat="50.17864" lon="1.64216">
        <ele>7.1</ele>
        <time>2013-07-21T08:55:26Z</time>
      </trkpt>
      <trkpt lat="50.17875" lon="1.642">
        <ele>5.1</ele>
        <time>2013-07-21T08:55:37Z</time>
      </trkpt>
      <trkpt lat="50.17884" lon="1.64184">
        <ele>3</ele>
        <time>2013-07-21T08:55:49Z</time>
      </trkpt>
      <trkpt lat="50.17895" lon="1.64171">
        <ele>3.7</ele>
        <time>2013-07-21T08:55:58Z</time>
      </trkpt>
      <trkpt lat="50.17906" lon="1.64156">
        <ele>4.3</ele>
        <time>2013-07-21T08:56:07Z</time>
      </trkpt>
      <trkpt lat="50.17916" lon="1.6414">
        <ele>5.1</ele>
        <time>2013-07-21T08:56:17Z</time>
      </trkpt>
      <trkpt lat="50.17926" lon="1.64125">
        <ele>6</ele>
        <time>2013-07-21T08:56:29Z</time>
      </trkpt>
      <trkpt lat="50.17938" lon="1.64111">
        <ele>7.4</ele>
        <time>2013-07-21T08:56:40Z</time>
      </trkpt>
      <trkpt lat="50.17949" lon="1.64097">
        <ele>8.5</ele>
        <time>2013-07-21T08:56:49Z</time>
      </trkpt>
      <trkpt lat="50.17955" lon="1.64077">
        <ele>10</ele>
        <time>2013-07-21T08:57:01Z</time>
      </trkpt>
      <trkpt lat="50.17961" lon="1.64058">
        <ele>10.8</ele>
        <time>2013-07-21T08:57:10Z</time>
      </trkpt>
      <trkpt lat="50.17968" lon="1.64038">
        <ele>8.7</ele>
        <time>2013-07-21T08:57:38Z</time>
      </trkpt>
      <trkpt lat="50.17977" lon="1.6402">
        <ele>11.8</ele>
        <time>2013-07-21T08:57:51Z</time>
      </trkpt>
      <trkpt lat="50.17983" lon="1.64001">
        <ele>10.2</ele>
        <time>2013-07-21T08:58:02Z</time>
      </trkpt>
      <trkpt lat="50.17994" lon="1.63987">
        <ele>9.2</ele>
        <time>2013-07-21T08:58:12Z</time>
      </trkpt>
      <trkpt lat="50.17997" lon="1.63965">
        <ele>10</ele>
        <time>2013-07-21T08:58:24Z</time>
      </trkpt>
      <trkpt lat="50.18004" lon="1.63945">
        <ele>10.7</ele>
        <time>2013-07-21T08:58:33Z</time>
      </trkpt>
      <trkpt lat="50.18005" lon="1.63941">
        <ele>11.2</ele>
        <time>2013-07-21T08:58:40Z</time>
      </trkpt>
      <trkpt lat="50.18" lon="1.63921">
        <ele>19.5</ele>
        <time>2013-07-21T08:59:07Z</time>
      </trkpt>
      <trkpt lat="50.18008" lon="1.63902">
        <ele>25</ele>
        <time>2013-07-21T08:59:18Z</time>
      </trkpt>
      <trkpt lat="50.18015" lon="1.63883">
        <ele>27.1</ele>
        <time>2013-07-21T08:59:28Z</time>
      </trkpt>
      <trkpt lat="50.18018" lon="1.63871">
        <ele>25.2</ele>
        <time>2013-07-21T08:59:36Z</time>
      </trkpt>
      <trkpt lat="50.18034" lon="1.63869">
        <ele>24.2</ele>
        <time>2013-07-21T08:59:40Z</time>
      </trkpt>
      <trkpt lat="50.18042" lon="1.63875">
        <ele>24.6</ele>
        <time>2013-07-21T08:59:45Z</time>
      </trkpt>
      <trkpt lat="50.18023" lon="1.63874">
        <ele>24.7</ele>
        <time>2013-07-21T08:59:46Z</time>
      </trkpt>
      <trkpt lat="50.18023" lon="1.63852">
        <ele>26</ele>
        <time>2013-07-21T09:00:09Z</time>
      </trkpt>
      <trkpt lat="50.18029" lon="1.63833">
        <ele>26</ele>
        <time>2013-07-21T09:00:18Z</time>
      </trkpt>
      <trkpt lat="50.18037" lon="1.63814">
        <ele>31</ele>
        <time>2013-07-21T09:00:30Z</time>
      </trkpt>
      <trkpt lat="50.18042" lon="1.63792">
        <ele>32.3</ele>
        <time>2013-07-21T09:00:40Z</time>
      </trkpt>
      <trkpt lat="50.18048" lon="1.63772">
        <ele>33.7</ele>
        <time>2013-07-21T09:00:51Z</time>
      </trkpt>
      <trkpt lat="50.18065" lon="1.63741">
        <ele>30</ele>
        <time>2013-07-21T09:01:11Z</time>
      </trkpt>
      <trkpt lat="50.18065" lon="1.63741">
        <ele>30</ele>
        <time>2013-07-21T09:02:12Z</time>
      </trkpt>
      <trkpt lat="50.18073" lon="1.63727">
        <ele>27.9</ele>
        <time>2013-07-21T09:02:13Z</time>
      </trkpt>
      <trkpt lat="50.18086" lon="1.63716">
        <ele>29.4</ele>
        <time>2013-07-21T09:02:24Z</time>
      </trkpt>
      <trkpt lat="50.18098" lon="1.63706">
        <ele>31</ele>
        <time>2013-07-21T09:02:36Z</time>
      </trkpt>
      <trkpt lat="50.18109" lon="1.63692">
        <ele>32.6</ele>
        <time>2013-07-21T09:02:48Z</time>
      </trkpt>
      <trkpt lat="50.18128" lon="1.63672">
        <ele>35.2</ele>
        <time>2013-07-21T09:02:55Z</time>
      </trkpt>
      <trkpt lat="50.18128" lon="1.63672">
        <ele>35.2</ele>
        <time>2013-07-21T09:05:09Z</time>
      </trkpt>
      <trkpt lat="50.18134" lon="1.63667">
        <ele>37</ele>
        <time>2013-07-21T09:05:12Z</time>
      </trkpt>
      <trkpt lat="50.18149" lon="1.63666">
        <ele>38.3</ele>
        <time>2013-07-21T09:05:20Z</time>
      </trkpt>
      <trkpt lat="50.18163" lon="1.63667">
        <ele>40.3</ele>
        <time>2013-07-21T09:05:31Z</time>
      </trkpt>
      <trkpt lat="50.18176" lon="1.63657">
        <ele>43.7</ele>
        <time>2013-07-21T09:05:44Z</time>
      </trkpt>
      <trkpt lat="50.18189" lon="1.63662">
        <ele>46</ele>
        <time>2013-07-21T09:05:53Z</time>
      </trkpt>
      <trkpt lat="50.18202" lon="1.63652">
        <ele>45.5</ele>
        <time>2013-07-21T09:06:03Z</time>
      </trkpt>
      <trkpt lat="50.18212" lon="1.63637">
        <ele>45</ele>
        <time>2013-07-21T09:06:14Z</time>
      </trkpt>
      <trkpt lat="50.18226" lon="1.63627">
        <ele>41</ele>
        <time>2013-07-21T09:06:24Z</time>
      </trkpt>
      <trkpt lat="50.18236" lon="1.63613">
        <ele>38.7</ele>
        <time>2013-07-21T09:06:34Z</time>
      </trkpt>
      <trkpt lat="50.18249" lon="1.63607">
        <ele>37.3</ele>
        <time>2013-07-21T09:06:45Z</time>
      </trkpt>
      <trkpt lat="50.18263" lon="1.63602">
        <ele>36.1</ele>
        <time>2013-07-21T09:06:54Z</time>
      </trkpt>
      <trkpt lat="50.18276" lon="1.63599">
        <ele>34</ele>
        <time>2013-07-21T09:07:03Z</time>
      </trkpt>
      <trkpt lat="50.1829" lon="1.63604">
        <ele>32.3</ele>
        <time>2013-07-21T09:07:12Z</time>
      </trkpt>
      <trkpt lat="50.18305" lon="1.63603">
        <ele>36.6</ele>
        <time>2013-07-21T09:07:24Z</time>
      </trkpt>
      <trkpt lat="50.18319" lon="1.63599">
        <ele>38</ele>
        <time>2013-07-21T09:07:31Z</time>
      </trkpt>
      <trkpt lat="50.18332" lon="1.63594">
        <ele>36</ele>
        <time>2013-07-21T09:07:39Z</time>
      </trkpt>
      <trkpt lat="50.18337" lon="1.63574">
        <ele>33.3</ele>
        <time>2013-07-21T09:07:50Z</time>
      </trkpt>
      <trkpt lat="50.18342" lon="1.63571">
        <ele>32</ele>
        <time>2013-07-21T09:07:55Z</time>
      </trkpt>
      <trkpt lat="50.18355" lon="1.6358">
        <ele>34.6</ele>
        <time>2013-07-21T09:08:12Z</time>
      </trkpt>
      <trkpt lat="50.18369" lon="1.63578">
        <ele>30.3</ele>
        <time>2013-07-21T09:08:23Z</time>
      </trkpt>
      <trkpt lat="50.18382" lon="1.63583">
        <ele>33</ele>
        <time>2013-07-21T09:08:33Z</time>
      </trkpt>
      <trkpt lat="50.18397" lon="1.63588">
        <ele>34.3</ele>
        <time>2013-07-21T09:08:42Z</time>
      </trkpt>
      <trkpt lat="50.18408" lon="1.63603">
        <ele>35.9</ele>
        <time>2013-07-21T09:08:53Z</time>
      </trkpt>
      <trkpt lat="50.18417" lon="1.6362">
        <ele>34.4</ele>
        <time>2013-07-21T09:09:05Z</time>
      </trkpt>
      <trkpt lat="50.18426" lon="1.63635">
        <ele>31.8</ele>
        <time>2013-07-21T09:09:22Z</time>
      </trkpt>
      <trkpt lat="50.18436" lon="1.63651">
        <ele>30.4</ele>
        <time>2013-07-21T09:09:31Z</time>
      </trkpt>
      <trkpt lat="50.18444" lon="1.63669">
        <ele>31.6</ele>
        <time>2013-07-21T09:09:40Z</time>
      </trkpt>
      <trkpt lat="50.18455" lon="1.63683">
        <ele>34.1</ele>
        <time>2013-07-21T09:09:49Z</time>
      </trkpt>
      <trkpt lat="50.18464" lon="1.63699">
        <ele>36.4</ele>
        <time>2013-07-21T09:09:59Z</time>
      </trkpt>
      <trkpt lat="50.18476" lon="1.63714">
        <ele>37.8</ele>
        <time>2013-07-21T09:10:10Z</time>
      </trkpt>
      <trkpt lat="50.18487" lon="1.63729">
        <ele>39</ele>
        <time>2013-07-21T09:10:19Z</time>
      </trkpt>
      <trkpt lat="50.18494" lon="1.63747">
        <ele>39.8</ele>
        <time>2013-07-21T09:10:28Z</time>
      </trkpt>
      <trkpt lat="50.18508" lon="1.63752">
        <ele>38</ele>
        <time>2013-07-21T09:10:38Z</time>
      </trkpt>
      <trkpt lat="50.18517" lon="1.63769">
        <ele>34.5</ele>
        <time>2013-07-21T09:10:47Z</time>
      </trkpt>
      <trkpt lat="50.18521" lon="1.63789">
        <ele>27</ele>
        <time>2013-07-21T09:10:54Z</time>
      </trkpt>
      <trkpt lat="50.18528" lon="1.6381">
        <ele>28</ele>
        <time>2013-07-21T09:11:07Z</time>
      </trkpt>
      <trkpt lat="50.18528" lon="1.63833">
        <ele>27.5</ele>
        <time>2013-07-21T09:11:32Z</time>
      </trkpt>
      <trkpt lat="50.18533" lon="1.63854">
        <ele>26</ele>
        <time>2013-07-21T09:11:40Z</time>
      </trkpt>
      <trkpt lat="50.1854" lon="1.63874">
        <ele>24.5</ele>
        <time>2013-07-21T09:11:51Z</time>
      </trkpt>
      <trkpt lat="50.18541" lon="1.63892">
        <ele>24</ele>
        <time>2013-07-21T09:12:01Z</time>
      </trkpt>
      <trkpt lat="50.18554" lon="1.63902">
        <ele>24</ele>
        <time>2013-07-21T09:12:08Z</time>
      </trkpt>
      <trkpt lat="50.18557" lon="1.6389">
        <ele>26.9</ele>
        <time>2013-07-21T09:12:42Z</time>
      </trkpt>
      <trkpt lat="50.18557" lon="1.6389">
        <ele>26.9</ele>
        <time>2013-07-21T09:13:58Z</time>
      </trkpt>
      <trkpt lat="50.18557" lon="1.63878">
        <ele>29.7</ele>
        <time>2013-07-21T09:13:58Z</time>
      </trkpt>
      <trkpt lat="50.18571" lon="1.63878">
        <ele>30.5</ele>
        <time>2013-07-21T09:14:11Z</time>
      </trkpt>
      <trkpt lat="50.18583" lon="1.63867">
        <ele>31.1</ele>
        <time>2013-07-21T09:14:20Z</time>
      </trkpt>
      <trkpt lat="50.18604" lon="1.6385">
        <ele>29.9</ele>
        <time>2013-07-21T09:14:32Z</time>
      </trkpt>
      <trkpt lat="50.18604" lon="1.6385">
        <ele>29.9</ele>
        <time>2013-07-21T09:16:26Z</time>
      </trkpt>
      <trkpt lat="50.18613" lon="1.63841">
        <ele>28</ele>
        <time>2013-07-21T09:16:26Z</time>
      </trkpt>
      <trkpt lat="50.18616" lon="1.63824">
        <ele>27.3</ele>
        <time>2013-07-21T09:16:38Z</time>
      </trkpt>
      <trkpt lat="50.18618" lon="1.638">
        <ele>25.5</ele>
        <time>2013-07-21T09:16:56Z</time>
      </trkpt>
      <trkpt lat="50.18632" lon="1.63796">
        <ele>24.2</ele>
        <time>2013-07-21T09:17:08Z</time>
      </trkpt>
      <trkpt lat="50.18639" lon="1.63777">
        <ele>13.5</ele>
        <time>2013-07-21T09:17:21Z</time>
      </trkpt>
      <trkpt lat="50.18634" lon="1.63758">
        <ele>14.7</ele>
        <time>2013-07-21T09:17:44Z</time>
      </trkpt>
      <trkpt lat="50.18624" lon="1.63739">
        <ele>18.6</ele>
        <time>2013-07-21T09:17:52Z</time>
      </trkpt>
      <trkpt lat="50.18621" lon="1.63728">
        <ele>16.6</ele>
        <time>2013-07-21T09:17:58Z</time>
      </trkpt>
      <trkpt lat="50.18626" lon="1.63706">
        <ele>17</ele>
        <time>2013-07-21T09:18:07Z</time>
      </trkpt>
      <trkpt lat="50.18619" lon="1.63695">
        <ele>17.9</ele>
        <time>2013-07-21T09:18:14Z</time>
      </trkpt>
      <trkpt lat="50.1861" lon="1.637">
        <ele>18.2</ele>
        <time>2013-07-21T09:18:19Z</time>
      </trkpt>
      <trkpt lat="50.18601" lon="1.63684">
        <ele>18.8</ele>
        <time>2013-07-21T09:18:32Z</time>
      </trkpt>
      <trkpt lat="50.18591" lon="1.63667">
        <ele>17</ele>
        <time>2013-07-21T09:18:42Z</time>
      </trkpt>
      <trkpt lat="50.18579" lon="1.63654">
        <ele>18.2</ele>
        <time>2013-07-21T09:18:55Z</time>
      </trkpt>
      <trkpt lat="50.18567" lon="1.63643">
        <ele>19.1</ele>
        <time>2013-07-21T09:19:06Z</time>
      </trkpt>
      <trkpt lat="50.18554" lon="1.63634">
        <ele>20</ele>
        <time>2013-07-21T09:19:16Z</time>
      </trkpt>
      <trkpt lat="50.18541" lon="1.63625">
        <ele>21.5</ele>
        <time>2013-07-21T09:19:28Z</time>
      </trkpt>
      <trkpt lat="50.1853" lon="1.63609">
        <ele>23.1</ele>
        <time>2013-07-21T09:19:42Z</time>
      </trkpt>
      <trkpt lat="50.18519" lon="1.63594">
        <ele>24.9</ele>
        <time>2013-07-21T09:19:54Z</time>
      </trkpt>
      <trkpt lat="50.18514" lon="1.63572">
        <ele>26.8</ele>
        <time>2013-07-21T09:20:05Z</time>
      </trkpt>
      <trkpt lat="50.18512" lon="1.63551">
        <ele>30.8</ele>
        <time>2013-07-21T09:20:13Z</time>
      </trkpt>
      <trkpt lat="50.18507" lon="1.63529">
        <ele>27.4</ele>
        <time>2013-07-21T09:20:24Z</time>
      </trkpt>
      <trkpt lat="50.18499" lon="1.6351">
        <ele>29.6</ele>
        <time>2013-07-21T09:20:33Z</time>
      </trkpt>
      <trkpt lat="50.18493" lon="1.6349">
        <ele>30.4</ele>
        <time>2013-07-21T09:20:45Z</time>
      </trkpt>
      <trkpt lat="50.18485" lon="1.63472">
        <ele>31</ele>
        <time>2013-07-21T09:20:56Z</time>
      </trkpt>
      <trkpt lat="50.18474" lon="1.63458">
        <ele>30.2</ele>
        <time>2013-07-21T09:21:07Z</time>
      </trkpt>
      <trkpt lat="50.18461" lon="1.63451">
        <ele>35</ele>
        <time>2013-07-21T09:21:20Z</time>
      </trkpt>
      <trkpt lat="50.18447" lon="1.63448">
        <ele>32.9</ele>
        <time>2013-07-21T09:21:32Z</time>
      </trkpt>
      <trkpt lat="50.18436" lon="1.63444">
        <ele>32.2</ele>
        <time>2013-07-21T09:21:36Z</time>
      </trkpt>
      <trkpt lat="50.18444" lon="1.63426">
        <ele>22.8</ele>
        <time>2013-07-21T09:21:49Z</time>
      </trkpt>
      <trkpt lat="50.18457" lon="1.63415">
        <ele>22.7</ele>
        <time>2013-07-21T09:21:59Z</time>
      </trkpt>
      <trkpt lat="50.18466" lon="1.63397">
        <ele>23</ele>
        <time>2013-07-21T09:22:08Z</time>
      </trkpt>
      <trkpt lat="50.1847" lon="1.63376">
        <ele>23</ele>
        <time>2013-07-21T09:22:18Z</time>
      </trkpt>
      <trkpt lat="50.1847" lon="1.63359">
        <ele>23</ele>
        <time>2013-07-21T09:22:25Z</time>
      </trkpt>
      <trkpt lat="50.18473" lon="1.63366">
        <ele>23</ele>
        <time>2013-07-21T09:22:36Z</time>
      </trkpt>
      <trkpt lat="50.18477" lon="1.63345">
        <ele>20.2</ele>
        <time>2013-07-21T09:22:49Z</time>
      </trkpt>
      <trkpt lat="50.18481" lon="1.63323">
        <ele>15.3</ele>
        <time>2013-07-21T09:23:01Z</time>
      </trkpt>
      <trkpt lat="50.18485" lon="1.63303">
        <ele>17.6</ele>
        <time>2013-07-21T09:23:13Z</time>
      </trkpt>
      <trkpt lat="50.18486" lon="1.63282">
        <ele>14.4</ele>
        <time>2013-07-21T09:23:22Z</time>
      </trkpt>
      <trkpt lat="50.18489" lon="1.6326">
        <ele>8.3</ele>
        <time>2013-07-21T09:23:33Z</time>
      </trkpt>
      <trkpt lat="50.18493" lon="1.63239">
        <ele>9</ele>
        <time>2013-07-21T09:23:44Z</time>
      </trkpt>
      <trkpt lat="50.18498" lon="1.63226">
        <ele>11.1</ele>
        <time>2013-07-21T09:23:50Z</time>
      </trkpt>
      <trkpt lat="50.18504" lon="1.63222">
        <ele>13.6</ele>
        <time>2013-07-21T09:23:56Z</time>
      </trkpt>
      <trkpt lat="50.18518" lon="1.63215">
        <ele>6.4</ele>
        <time>2013-07-21T09:24:12Z</time>
      </trkpt>
      <trkpt lat="50.18526" lon="1.63209">
        <ele>9.2</ele>
        <time>2013-07-21T09:24:18Z</time>
      </trkpt>
      <trkpt lat="50.18527" lon="1.63188">
        <ele>9.4</ele>
        <time>2013-07-21T09:24:28Z</time>
      </trkpt>
      <trkpt lat="50.18538" lon="1.63173">
        <ele>10</ele>
        <time>2013-07-21T09:24:37Z</time>
      </trkpt>
      <trkpt lat="50.18547" lon="1.63154">
        <ele>10</ele>
        <time>2013-07-21T09:24:45Z</time>
      </trkpt>
      <trkpt lat="50.18557" lon="1.63137">
        <ele>8.5</ele>
        <time>2013-07-21T09:24:53Z</time>
      </trkpt>
      <trkpt lat="50.18565" lon="1.6312">
        <ele>7.6</ele>
        <time>2013-07-21T09:25:03Z</time>
      </trkpt>
      <trkpt lat="50.18577" lon="1.63108">
        <ele>7.8</ele>
        <time>2013-07-21T09:25:15Z</time>
      </trkpt>
      <trkpt lat="50.1859" lon="1.63104">
        <ele>5</ele>
        <time>2013-07-21T09:25:27Z</time>
      </trkpt>
      <trkpt lat="50.18604" lon="1.631">
        <ele>3</ele>
        <time>2013-07-21T09:25:39Z</time>
      </trkpt>
      <trkpt lat="50.18618" lon="1.63096">
        <ele>3.5</ele>
        <time>2013-07-21T09:25:48Z</time>
      </trkpt>
      <trkpt lat="50.18631" lon="1.63088">
        <ele>6.3</ele>
        <time>2013-07-21T09:26:01Z</time>
      </trkpt>
      <trkpt lat="50.18643" lon="1.63076">
        <ele>8.7</ele>
        <time>2013-07-21T09:26:10Z</time>
      </trkpt>
      <trkpt lat="50.18654" lon="1.63065">
        <ele>10.5</ele>
        <time>2013-07-21T09:26:21Z</time>
      </trkpt>
      <trkpt lat="50.18667" lon="1.63055">
        <ele>8.9</ele>
        <time>2013-07-21T09:26:31Z</time>
      </trkpt>
      <trkpt lat="50.18679" lon="1.6304">
        <ele>6.5</ele>
        <time>2013-07-21T09:26:48Z</time>
      </trkpt>
      <trkpt lat="50.18686" lon="1.63023">
        <ele>8.1</ele>
        <time>2013-07-21T09:26:58Z</time>
      </trkpt>
      <trkpt lat="50.18695" lon="1.63006">
        <ele>6.6</ele>
        <time>2013-07-21T09:27:09Z</time>
      </trkpt>
      <trkpt lat="50.18705" lon="1.62991">
        <ele>4.6</ele>
        <time>2013-07-21T09:27:22Z</time>
      </trkpt>
      <trkpt lat="50.18717" lon="1.62983">
        <ele>5</ele>
        <time>2013-07-21T09:27:36Z</time>
      </trkpt>
      <trkpt lat="50.18718" lon="1.62962">
        <ele>7.7</ele>
        <time>2013-07-21T09:27:47Z</time>
      </trkpt>
      <trkpt lat="50.18727" lon="1.62945">
        <ele>10.8</ele>
        <time>2013-07-21T09:28:00Z</time>
      </trkpt>
      <trkpt lat="50.18732" lon="1.62923">
        <ele>8.4</ele>
        <time>2013-07-21T09:28:13Z</time>
      </trkpt>
      <trkpt lat="50.18733" lon="1.62901">
        <ele>11.5</ele>
        <time>2013-07-21T09:28:27Z</time>
      </trkpt>
      <trkpt lat="50.18742" lon="1.62885">
        <ele>15</ele>
        <time>2013-07-21T09:28:38Z</time>
      </trkpt>
      <trkpt lat="50.18746" lon="1.62863">
        <ele>17.9</ele>
        <time>2013-07-21T09:28:51Z</time>
      </trkpt>
      <trkpt lat="50.1875" lon="1.62842">
        <ele>19.6</ele>
        <time>2013-07-21T09:29:06Z</time>
      </trkpt>
      <trkpt lat="50.18756" lon="1.62822">
        <ele>17.6</ele>
        <time>2013-07-21T09:29:15Z</time>
      </trkpt>
      <trkpt lat="50.18756" lon="1.62805">
        <ele>20.2</ele>
        <time>2013-07-21T09:29:26Z</time>
      </trkpt>
      <trkpt lat="50.18747" lon="1.62787">
        <ele>20.9</ele>
        <time>2013-07-21T09:29:38Z</time>
      </trkpt>
      <trkpt lat="50.18736" lon="1.62772">
        <ele>23.5</ele>
        <time>2013-07-21T09:29:49Z</time>
      </trkpt>
      <trkpt lat="50.18732" lon="1.62751">
        <ele>25.5</ele>
        <time>2013-07-21T09:29:59Z</time>
      </trkpt>
      <trkpt lat="50.18722" lon="1.62736">
        <ele>27.6</ele>
        <time>2013-07-21T09:30:10Z</time>
      </trkpt>
      <trkpt lat="50.18715" lon="1.62718">
        <ele>23.4</ele>
        <time>2013-07-21T09:30:22Z</time>
      </trkpt>
      <trkpt lat="50.18706" lon="1.62701">
        <ele>25</ele>
        <time>2013-07-21T09:30:31Z</time>
      </trkpt>
      <trkpt lat="50.18695" lon="1.62687">
        <ele>25.4</ele>
        <time>2013-07-21T09:30:43Z</time>
      </trkpt>
      <trkpt lat="50.187" lon="1.62668">
        <ele>24.6</ele>
        <time>2013-07-21T09:30:52Z</time>
      </trkpt>
      <trkpt lat="50.18702" lon="1.62646">
        <ele>23.3</ele>
        <time>2013-07-21T09:31:08Z</time>
      </trkpt>
      <trkpt lat="50.18689" lon="1.62637">
        <ele>25.5</ele>
        <time>2013-07-21T09:31:28Z</time>
      </trkpt>
      <trkpt lat="50.18681" lon="1.62635">
        <ele>23.3</ele>
        <time>2013-07-21T09:31:39Z</time>
      </trkpt>
      <trkpt lat="50.18684" lon="1.62613">
        <ele>20.5</ele>
        <time>2013-07-21T09:31:55Z</time>
      </trkpt>
      <trkpt lat="50.18692" lon="1.62595">
        <ele>18.5</ele>
        <time>2013-07-21T09:32:06Z</time>
      </trkpt>
      <trkpt lat="50.18697" lon="1.62573">
        <ele>18.8</ele>
        <time>2013-07-21T09:32:16Z</time>
      </trkpt>
      <trkpt lat="50.18704" lon="1.62556">
        <ele>19.9</ele>
        <time>2013-07-21T09:32:25Z</time>
      </trkpt>
      <trkpt lat="50.18705" lon="1.62548">
        <ele>20.6</ele>
        <time>2013-07-21T09:32:31Z</time>
      </trkpt>
      <trkpt lat="50.1869" lon="1.6255">
        <ele>21.5</ele>
        <time>2013-07-21T09:32:38Z</time>
      </trkpt>
      <trkpt lat="50.18676" lon="1.62548">
        <ele>20</ele>
        <time>2013-07-21T09:32:46Z</time>
      </trkpt>
      <trkpt lat="50.18662" lon="1.62546">
        <ele>22.6</ele>
        <time>2013-07-21T09:32:56Z</time>
      </trkpt>
      <trkpt lat="50.18648" lon="1.62538">
        <ele>24.7</ele>
        <time>2013-07-21T09:33:06Z</time>
      </trkpt>
      <trkpt lat="50.18634" lon="1.62537">
        <ele>22.3</ele>
        <time>2013-07-21T09:33:16Z</time>
      </trkpt>
      <trkpt lat="50.18621" lon="1.6253">
        <ele>24.5</ele>
        <time>2013-07-21T09:33:30Z</time>
      </trkpt>
      <trkpt lat="50.18609" lon="1.6252">
        <ele>23.3</ele>
        <time>2013-07-21T09:33:40Z</time>
      </trkpt>
      <trkpt lat="50.18601" lon="1.62501">
        <ele>22</ele>
        <time>2013-07-21T09:33:50Z</time>
      </trkpt>
      <trkpt lat="50.18593" lon="1.62484">
        <ele>22.9</ele>
        <time>2013-07-21T09:34:00Z</time>
      </trkpt>
      <trkpt lat="50.18586" lon="1.62462">
        <ele>24.4</ele>
        <time>2013-07-21T09:34:17Z</time>
      </trkpt>
      <trkpt lat="50.18577" lon="1.62444">
        <ele>25</ele>
        <time>2013-07-21T09:34:25Z</time>
      </trkpt>
      <trkpt lat="50.18568" lon="1.62428">
        <ele>25.2</ele>
        <time>2013-07-21T09:34:34Z</time>
      </trkpt>
      <trkpt lat="50.18557" lon="1.62413">
        <ele>25.5</ele>
        <time>2013-07-21T09:34:44Z</time>
      </trkpt>
      <trkpt lat="50.18545" lon="1.62401">
        <ele>25.7</ele>
        <time>2013-07-21T09:34:55Z</time>
      </trkpt>
      <trkpt lat="50.18536" lon="1.62386">
        <ele>26</ele>
        <time>2013-07-21T09:35:06Z</time>
      </trkpt>
      <trkpt lat="50.18527" lon="1.6237">
        <ele>26.3</ele>
        <time>2013-07-21T09:35:18Z</time>
      </trkpt>
      <trkpt lat="50.1852" lon="1.62351">
        <ele>26.5</ele>
        <time>2013-07-21T09:35:29Z</time>
      </trkpt>
      <trkpt lat="50.18511" lon="1.62335">
        <ele>26.8</ele>
        <time>2013-07-21T09:35:40Z</time>
      </trkpt>
      <trkpt lat="50.185" lon="1.62321">
        <ele>27</ele>
        <time>2013-07-21T09:35:49Z</time>
      </trkpt>
      <trkpt lat="50.18491" lon="1.62303">
        <ele>27.3</ele>
        <time>2013-07-21T09:36:03Z</time>
      </trkpt>
      <trkpt lat="50.18483" lon="1.62285">
        <ele>27.6</ele>
        <time>2013-07-21T09:36:15Z</time>
      </trkpt>
      <trkpt lat="50.18479" lon="1.62265">
        <ele>27.9</ele>
        <time>2013-07-21T09:36:27Z</time>
      </trkpt>
      <trkpt lat="50.18485" lon="1.62246">
        <ele>27.2</ele>
        <time>2013-07-21T09:36:36Z</time>
      </trkpt>
      <trkpt lat="50.18495" lon="1.62231">
        <ele>24.7</ele>
        <time>2013-07-21T09:36:47Z</time>
      </trkpt>
      <trkpt lat="50.18506" lon="1.62216">
        <ele>23.1</ele>
        <time>2013-07-21T09:36:59Z</time>
      </trkpt>
      <trkpt lat="50.18516" lon="1.62202">
        <ele>22.1</ele>
        <time>2013-07-21T09:37:09Z</time>
      </trkpt>
      <trkpt lat="50.18527" lon="1.62188">
        <ele>21.1</ele>
        <time>2013-07-21T09:37:21Z</time>
      </trkpt>
      <trkpt lat="50.18538" lon="1.62175">
        <ele>22.1</ele>
        <time>2013-07-21T09:37:32Z</time>
      </trkpt>
      <trkpt lat="50.18549" lon="1.62164">
        <ele>23.2</ele>
        <time>2013-07-21T09:37:44Z</time>
      </trkpt>
      <trkpt lat="50.18561" lon="1.62152">
        <ele>23.8</ele>
        <time>2013-07-21T09:37:54Z</time>
      </trkpt>
      <trkpt lat="50.18568" lon="1.62132">
        <ele>23</ele>
        <time>2013-07-21T09:38:04Z</time>
      </trkpt>
      <trkpt lat="50.18579" lon="1.6212">
        <ele>22.3</ele>
        <time>2013-07-21T09:38:13Z</time>
      </trkpt>
      <trkpt lat="50.18591" lon="1.62107">
        <ele>21.5</ele>
        <time>2013-07-21T09:38:22Z</time>
      </trkpt>
      <trkpt lat="50.186" lon="1.62092">
        <ele>20.6</ele>
        <time>2013-07-21T09:38:34Z</time>
      </trkpt>
      <trkpt lat="50.18612" lon="1.62078">
        <ele>20.7</ele>
        <time>2013-07-21T09:38:45Z</time>
      </trkpt>
      <trkpt lat="50.18622" lon="1.62062">
        <ele>23</ele>
        <time>2013-07-21T09:38:57Z</time>
      </trkpt>
      <trkpt lat="50.1863" lon="1.62044">
        <ele>26.9</ele>
        <time>2013-07-21T09:39:08Z</time>
      </trkpt>
      <trkpt lat="50.18623" lon="1.62026">
        <ele>29</ele>
        <time>2013-07-21T09:39:14Z</time>
      </trkpt>
      <trkpt lat="50.18611" lon="1.62019">
        <ele>32.3</ele>
        <time>2013-07-21T09:39:24Z</time>
      </trkpt>
      <trkpt lat="50.18602" lon="1.62001">
        <ele>36.2</ele>
        <time>2013-07-21T09:39:30Z</time>
      </trkpt>
      <trkpt lat="50.18592" lon="1.61986">
        <ele>38.5</ele>
        <time>2013-07-21T09:39:39Z</time>
      </trkpt>
      <trkpt lat="50.18578" lon="1.61984">
        <ele>36.2</ele>
        <time>2013-07-21T09:39:49Z</time>
      </trkpt>
      <trkpt lat="50.18565" lon="1.61976">
        <ele>33.1</ele>
        <time>2013-07-21T09:40:01Z</time>
      </trkpt>
      <trkpt lat="50.18551" lon="1.61972">
        <ele>31.6</ele>
        <time>2013-07-21T09:40:13Z</time>
      </trkpt>
      <trkpt lat="50.18538" lon="1.61965">
        <ele>28.6</ele>
        <time>2013-07-21T09:40:22Z</time>
      </trkpt>
      <trkpt lat="50.18524" lon="1.61964">
        <ele>20.7</ele>
        <time>2013-07-21T09:40:32Z</time>
      </trkpt>
      <trkpt lat="50.18512" lon="1.61956">
        <ele>25.4</ele>
        <time>2013-07-21T09:40:42Z</time>
      </trkpt>
      <trkpt lat="50.185" lon="1.61943">
        <ele>27.8</ele>
        <time>2013-07-21T09:40:53Z</time>
      </trkpt>
      <trkpt lat="50.18488" lon="1.61928">
        <ele>29.1</ele>
        <time>2013-07-21T09:40:59Z</time>
      </trkpt>
      <trkpt lat="50.18474" lon="1.61924">
        <ele>30.5</ele>
        <time>2013-07-21T09:41:11Z</time>
      </trkpt>
      <trkpt lat="50.1846" lon="1.61917">
        <ele>30.2</ele>
        <time>2013-07-21T09:41:24Z</time>
      </trkpt>
      <trkpt lat="50.18446" lon="1.61914">
        <ele>31.1</ele>
        <time>2013-07-21T09:41:39Z</time>
      </trkpt>
      <trkpt lat="50.18433" lon="1.61908">
        <ele>31.8</ele>
        <time>2013-07-21T09:41:48Z</time>
      </trkpt>
      <trkpt lat="50.18421" lon="1.61896">
        <ele>32.8</ele>
        <time>2013-07-21T09:42:01Z</time>
      </trkpt>
      <trkpt lat="50.1841" lon="1.61884">
        <ele>31.1</ele>
        <time>2013-07-21T09:42:10Z</time>
      </trkpt>
      <trkpt lat="50.18408" lon="1.61881">
        <ele>30.3</ele>
        <time>2013-07-21T09:42:13Z</time>
      </trkpt>
      <trkpt lat="50.18407" lon="1.6186">
        <ele>30.2</ele>
        <time>2013-07-21T09:42:25Z</time>
      </trkpt>
      <trkpt lat="50.18403" lon="1.61839">
        <ele>30.4</ele>
        <time>2013-07-21T09:42:37Z</time>
      </trkpt>
      <trkpt lat="50.18399" lon="1.61817">
        <ele>30.6</ele>
        <time>2013-07-21T09:42:49Z</time>
      </trkpt>
      <trkpt lat="50.18394" lon="1.61798">
        <ele>30.8</ele>
        <time>2013-07-21T09:42:59Z</time>
      </trkpt>
      <trkpt lat="50.1838" lon="1.61801">
        <ele>31</ele>
        <time>2013-07-21T09:43:09Z</time>
      </trkpt>
      <trkpt lat="50.18377" lon="1.618">
        <ele>31</ele>
        <time>2013-07-21T09:43:14Z</time>
      </trkpt>
    </trkseg>
  </trk>
</gpx>